<?xml version="1.0" encoding="UTF-8" standalone="no" ?>
<gpx xmlns="http://www.topografix.com/GPX/1/1" xmlns:xsi="http://www.w3.org/2001/XMLSchema-instance" xsi:schemaLocation="http://www.topografix.com/GPX/1/1 http://www.topografix.com/GPX/1/1/gpx.xsd" version="1.1" creator="VisuGPX - https://www.visugpx.com">
  <metadata>
    <name>13-D-Reco-Trets</name>
    <desc><![CDATA[13-D-Reco-Trets : au pied du mont Aurélien]]></desc>
  </metadata>
  <trk>
    <name><![CDATA[2016-03-30-D-R-Trets]]></name>
    <trkseg>
      <trkpt lat="43.46717" lon="5.74569">
        <ele>296.6</ele>
        <time>2016-03-30T06:59:17Z</time>
      </trkpt>
      <trkpt lat="43.46717" lon="5.74569">
        <ele>296.6</ele>
        <time>2016-03-30T06:59:18Z</time>
      </trkpt>
      <trkpt lat="43.46729" lon="5.74532">
        <ele>297</ele>
        <time>2016-03-30T06:59:30Z</time>
      </trkpt>
      <trkpt lat="43.46721" lon="5.7454">
        <ele>308.1</ele>
        <time>2016-03-30T07:03:01Z</time>
      </trkpt>
      <trkpt lat="43.46715" lon="5.74549">
        <ele>308.2</ele>
        <time>2016-03-30T07:03:09Z</time>
      </trkpt>
      <trkpt lat="43.46711" lon="5.74561">
        <ele>308.3</ele>
        <time>2016-03-30T07:03:18Z</time>
      </trkpt>
      <trkpt lat="43.46705" lon="5.74572">
        <ele>308.4</ele>
        <time>2016-03-30T07:03:25Z</time>
      </trkpt>
      <trkpt lat="43.467" lon="5.74584">
        <ele>308.5</ele>
        <time>2016-03-30T07:03:32Z</time>
      </trkpt>
      <trkpt lat="43.46696" lon="5.74596">
        <ele>308.6</ele>
        <time>2016-03-30T07:03:39Z</time>
      </trkpt>
      <trkpt lat="43.46689" lon="5.74605">
        <ele>308.8</ele>
        <time>2016-03-30T07:03:48Z</time>
      </trkpt>
      <trkpt lat="43.4668" lon="5.74602">
        <ele>309.2</ele>
        <time>2016-03-30T07:03:57Z</time>
      </trkpt>
      <trkpt lat="43.4667" lon="5.74598">
        <ele>309.8</ele>
        <time>2016-03-30T07:04:06Z</time>
      </trkpt>
      <trkpt lat="43.46661" lon="5.74596">
        <ele>310.2</ele>
        <time>2016-03-30T07:04:15Z</time>
      </trkpt>
      <trkpt lat="43.46652" lon="5.74597">
        <ele>310.8</ele>
        <time>2016-03-30T07:04:23Z</time>
      </trkpt>
      <trkpt lat="43.46642" lon="5.74598">
        <ele>311.7</ele>
        <time>2016-03-30T07:04:32Z</time>
      </trkpt>
      <trkpt lat="43.46633" lon="5.74601">
        <ele>312.6</ele>
        <time>2016-03-30T07:04:40Z</time>
      </trkpt>
      <trkpt lat="43.46624" lon="5.74604">
        <ele>313.3</ele>
        <time>2016-03-30T07:04:48Z</time>
      </trkpt>
      <trkpt lat="43.46615" lon="5.74608">
        <ele>314</ele>
        <time>2016-03-30T07:04:56Z</time>
      </trkpt>
      <trkpt lat="43.46607" lon="5.74615">
        <ele>315.1</ele>
        <time>2016-03-30T07:05:07Z</time>
      </trkpt>
      <trkpt lat="43.46598" lon="5.74619">
        <ele>316.1</ele>
        <time>2016-03-30T07:05:15Z</time>
      </trkpt>
      <trkpt lat="43.46588" lon="5.7462">
        <ele>317</ele>
        <time>2016-03-30T07:05:23Z</time>
      </trkpt>
      <trkpt lat="43.4658" lon="5.74626">
        <ele>317.8</ele>
        <time>2016-03-30T07:05:32Z</time>
      </trkpt>
      <trkpt lat="43.4657" lon="5.74628">
        <ele>318.5</ele>
        <time>2016-03-30T07:05:41Z</time>
      </trkpt>
      <trkpt lat="43.46561" lon="5.74632">
        <ele>318.9</ele>
        <time>2016-03-30T07:05:49Z</time>
      </trkpt>
      <trkpt lat="43.46552" lon="5.74634">
        <ele>319.4</ele>
        <time>2016-03-30T07:05:57Z</time>
      </trkpt>
      <trkpt lat="43.46542" lon="5.74637">
        <ele>319.8</ele>
        <time>2016-03-30T07:06:04Z</time>
      </trkpt>
      <trkpt lat="43.46534" lon="5.74642">
        <ele>320.3</ele>
        <time>2016-03-30T07:06:12Z</time>
      </trkpt>
      <trkpt lat="43.46524" lon="5.74647">
        <ele>321</ele>
        <time>2016-03-30T07:06:21Z</time>
      </trkpt>
      <trkpt lat="43.46515" lon="5.74651">
        <ele>321.4</ele>
        <time>2016-03-30T07:06:30Z</time>
      </trkpt>
      <trkpt lat="43.46506" lon="5.74654">
        <ele>322.3</ele>
        <time>2016-03-30T07:06:39Z</time>
      </trkpt>
      <trkpt lat="43.46497" lon="5.7466">
        <ele>323.3</ele>
        <time>2016-03-30T07:06:48Z</time>
      </trkpt>
      <trkpt lat="43.46488" lon="5.74662">
        <ele>324</ele>
        <time>2016-03-30T07:06:56Z</time>
      </trkpt>
      <trkpt lat="43.46478" lon="5.74664">
        <ele>324.7</ele>
        <time>2016-03-30T07:07:05Z</time>
      </trkpt>
      <trkpt lat="43.46469" lon="5.74668">
        <ele>325.3</ele>
        <time>2016-03-30T07:07:13Z</time>
      </trkpt>
      <trkpt lat="43.46459" lon="5.74669">
        <ele>326</ele>
        <time>2016-03-30T07:07:21Z</time>
      </trkpt>
      <trkpt lat="43.4645" lon="5.74672">
        <ele>326.6</ele>
        <time>2016-03-30T07:07:29Z</time>
      </trkpt>
      <trkpt lat="43.46441" lon="5.74677">
        <ele>327.1</ele>
        <time>2016-03-30T07:07:36Z</time>
      </trkpt>
      <trkpt lat="43.46432" lon="5.74681">
        <ele>327.8</ele>
        <time>2016-03-30T07:07:45Z</time>
      </trkpt>
      <trkpt lat="43.46424" lon="5.74688">
        <ele>328.5</ele>
        <time>2016-03-30T07:07:54Z</time>
      </trkpt>
      <trkpt lat="43.46415" lon="5.74694">
        <ele>329.2</ele>
        <time>2016-03-30T07:08:03Z</time>
      </trkpt>
      <trkpt lat="43.46406" lon="5.74698">
        <ele>329.8</ele>
        <time>2016-03-30T07:08:12Z</time>
      </trkpt>
      <trkpt lat="43.46397" lon="5.74703">
        <ele>330.3</ele>
        <time>2016-03-30T07:08:20Z</time>
      </trkpt>
      <trkpt lat="43.46387" lon="5.74708">
        <ele>331</ele>
        <time>2016-03-30T07:08:29Z</time>
      </trkpt>
      <trkpt lat="43.46378" lon="5.74711">
        <ele>331.8</ele>
        <time>2016-03-30T07:08:38Z</time>
      </trkpt>
      <trkpt lat="43.4637" lon="5.74715">
        <ele>332.2</ele>
        <time>2016-03-30T07:08:46Z</time>
      </trkpt>
      <trkpt lat="43.4636" lon="5.74716">
        <ele>332.6</ele>
        <time>2016-03-30T07:08:54Z</time>
      </trkpt>
      <trkpt lat="43.46351" lon="5.7472">
        <ele>333</ele>
        <time>2016-03-30T07:09:02Z</time>
      </trkpt>
      <trkpt lat="43.46342" lon="5.74723">
        <ele>333.5</ele>
        <time>2016-03-30T07:09:09Z</time>
      </trkpt>
      <trkpt lat="43.46333" lon="5.74724">
        <ele>334.1</ele>
        <time>2016-03-30T07:09:18Z</time>
      </trkpt>
      <trkpt lat="43.46323" lon="5.74728">
        <ele>334.6</ele>
        <time>2016-03-30T07:09:26Z</time>
      </trkpt>
      <trkpt lat="43.46315" lon="5.74732">
        <ele>335.1</ele>
        <time>2016-03-30T07:09:34Z</time>
      </trkpt>
      <trkpt lat="43.46305" lon="5.74734">
        <ele>335.6</ele>
        <time>2016-03-30T07:09:42Z</time>
      </trkpt>
      <trkpt lat="43.46296" lon="5.74739">
        <ele>335.9</ele>
        <time>2016-03-30T07:09:49Z</time>
      </trkpt>
      <trkpt lat="43.46287" lon="5.74742">
        <ele>336.1</ele>
        <time>2016-03-30T07:09:57Z</time>
      </trkpt>
      <trkpt lat="43.46278" lon="5.74747">
        <ele>336.3</ele>
        <time>2016-03-30T07:10:05Z</time>
      </trkpt>
      <trkpt lat="43.46269" lon="5.74748">
        <ele>336.5</ele>
        <time>2016-03-30T07:10:14Z</time>
      </trkpt>
      <trkpt lat="43.46259" lon="5.74751">
        <ele>336.9</ele>
        <time>2016-03-30T07:10:22Z</time>
      </trkpt>
      <trkpt lat="43.4625" lon="5.74754">
        <ele>337.8</ele>
        <time>2016-03-30T07:10:30Z</time>
      </trkpt>
      <trkpt lat="43.46241" lon="5.7476">
        <ele>338.4</ele>
        <time>2016-03-30T07:10:38Z</time>
      </trkpt>
      <trkpt lat="43.46232" lon="5.74763">
        <ele>339.1</ele>
        <time>2016-03-30T07:10:47Z</time>
      </trkpt>
      <trkpt lat="43.46223" lon="5.74767">
        <ele>339.7</ele>
        <time>2016-03-30T07:10:55Z</time>
      </trkpt>
      <trkpt lat="43.46214" lon="5.74772">
        <ele>340.2</ele>
        <time>2016-03-30T07:11:03Z</time>
      </trkpt>
      <trkpt lat="43.46205" lon="5.74778">
        <ele>340.7</ele>
        <time>2016-03-30T07:11:11Z</time>
      </trkpt>
      <trkpt lat="43.46197" lon="5.74784">
        <ele>341.2</ele>
        <time>2016-03-30T07:11:18Z</time>
      </trkpt>
      <trkpt lat="43.46188" lon="5.74789">
        <ele>342</ele>
        <time>2016-03-30T07:11:26Z</time>
      </trkpt>
      <trkpt lat="43.46179" lon="5.74792">
        <ele>342.9</ele>
        <time>2016-03-30T07:11:35Z</time>
      </trkpt>
      <trkpt lat="43.46169" lon="5.74793">
        <ele>344</ele>
        <time>2016-03-30T07:11:44Z</time>
      </trkpt>
      <trkpt lat="43.46161" lon="5.74789">
        <ele>345</ele>
        <time>2016-03-30T07:11:57Z</time>
      </trkpt>
      <trkpt lat="43.46152" lon="5.74791">
        <ele>345.9</ele>
        <time>2016-03-30T07:12:16Z</time>
      </trkpt>
      <trkpt lat="43.46143" lon="5.74795">
        <ele>346.7</ele>
        <time>2016-03-30T07:13:17Z</time>
      </trkpt>
      <trkpt lat="43.46136" lon="5.74804">
        <ele>346.7</ele>
        <time>2016-03-30T07:13:25Z</time>
      </trkpt>
      <trkpt lat="43.46128" lon="5.748">
        <ele>346.6</ele>
        <time>2016-03-30T07:14:21Z</time>
      </trkpt>
      <trkpt lat="43.4612" lon="5.74809">
        <ele>346.6</ele>
        <time>2016-03-30T07:14:30Z</time>
      </trkpt>
      <trkpt lat="43.46112" lon="5.74816">
        <ele>347.4</ele>
        <time>2016-03-30T07:14:41Z</time>
      </trkpt>
      <trkpt lat="43.46104" lon="5.74823">
        <ele>348.5</ele>
        <time>2016-03-30T07:14:51Z</time>
      </trkpt>
      <trkpt lat="43.46096" lon="5.7483">
        <ele>349.9</ele>
        <time>2016-03-30T07:14:59Z</time>
      </trkpt>
      <trkpt lat="43.4609" lon="5.74841">
        <ele>350.9</ele>
        <time>2016-03-30T07:15:09Z</time>
      </trkpt>
      <trkpt lat="43.46085" lon="5.74851">
        <ele>351.4</ele>
        <time>2016-03-30T07:15:18Z</time>
      </trkpt>
      <trkpt lat="43.46079" lon="5.74862">
        <ele>352.6</ele>
        <time>2016-03-30T07:15:30Z</time>
      </trkpt>
      <trkpt lat="43.46074" lon="5.74872">
        <ele>353.6</ele>
        <time>2016-03-30T07:15:41Z</time>
      </trkpt>
      <trkpt lat="43.46066" lon="5.74878">
        <ele>354.8</ele>
        <time>2016-03-30T07:15:51Z</time>
      </trkpt>
      <trkpt lat="43.46059" lon="5.74888">
        <ele>355.5</ele>
        <time>2016-03-30T07:15:59Z</time>
      </trkpt>
      <trkpt lat="43.46052" lon="5.74897">
        <ele>356.3</ele>
        <time>2016-03-30T07:16:09Z</time>
      </trkpt>
      <trkpt lat="43.46045" lon="5.74906">
        <ele>357.2</ele>
        <time>2016-03-30T07:16:19Z</time>
      </trkpt>
      <trkpt lat="43.4604" lon="5.74917">
        <ele>358</ele>
        <time>2016-03-30T07:16:29Z</time>
      </trkpt>
      <trkpt lat="43.46033" lon="5.74925">
        <ele>358.8</ele>
        <time>2016-03-30T07:16:39Z</time>
      </trkpt>
      <trkpt lat="43.46025" lon="5.74934">
        <ele>360</ele>
        <time>2016-03-30T07:16:50Z</time>
      </trkpt>
      <trkpt lat="43.4602" lon="5.74948">
        <ele>361.2</ele>
        <time>2016-03-30T07:16:59Z</time>
      </trkpt>
      <trkpt lat="43.46013" lon="5.74956">
        <ele>362.1</ele>
        <time>2016-03-30T07:17:08Z</time>
      </trkpt>
      <trkpt lat="43.46007" lon="5.74967">
        <ele>362.9</ele>
        <time>2016-03-30T07:17:16Z</time>
      </trkpt>
      <trkpt lat="43.46" lon="5.74975">
        <ele>363.8</ele>
        <time>2016-03-30T07:17:25Z</time>
      </trkpt>
      <trkpt lat="43.45992" lon="5.74985">
        <ele>364.9</ele>
        <time>2016-03-30T07:17:34Z</time>
      </trkpt>
      <trkpt lat="43.45984" lon="5.74992">
        <ele>366.3</ele>
        <time>2016-03-30T07:17:44Z</time>
      </trkpt>
      <trkpt lat="43.45975" lon="5.74996">
        <ele>367.9</ele>
        <time>2016-03-30T07:17:56Z</time>
      </trkpt>
      <trkpt lat="43.45966" lon="5.74998">
        <ele>369.6</ele>
        <time>2016-03-30T07:18:14Z</time>
      </trkpt>
      <trkpt lat="43.45959" lon="5.75006">
        <ele>370.5</ele>
        <time>2016-03-30T07:18:24Z</time>
      </trkpt>
      <trkpt lat="43.4595" lon="5.75012">
        <ele>371.7</ele>
        <time>2016-03-30T07:18:34Z</time>
      </trkpt>
      <trkpt lat="43.45941" lon="5.75018">
        <ele>372.7</ele>
        <time>2016-03-30T07:18:43Z</time>
      </trkpt>
      <trkpt lat="43.45933" lon="5.75025">
        <ele>374.1</ele>
        <time>2016-03-30T07:18:53Z</time>
      </trkpt>
      <trkpt lat="43.45925" lon="5.75031">
        <ele>375.4</ele>
        <time>2016-03-30T07:19:04Z</time>
      </trkpt>
      <trkpt lat="43.45917" lon="5.75039">
        <ele>376.2</ele>
        <time>2016-03-30T07:19:13Z</time>
      </trkpt>
      <trkpt lat="43.4591" lon="5.75047">
        <ele>376.5</ele>
        <time>2016-03-30T07:19:21Z</time>
      </trkpt>
      <trkpt lat="43.45902" lon="5.75055">
        <ele>376.7</ele>
        <time>2016-03-30T07:19:30Z</time>
      </trkpt>
      <trkpt lat="43.45893" lon="5.7506">
        <ele>377</ele>
        <time>2016-03-30T07:19:45Z</time>
      </trkpt>
      <trkpt lat="43.45884" lon="5.75064">
        <ele>377.1</ele>
        <time>2016-03-30T07:19:52Z</time>
      </trkpt>
      <trkpt lat="43.45874" lon="5.75066">
        <ele>377.3</ele>
        <time>2016-03-30T07:20:00Z</time>
      </trkpt>
      <trkpt lat="43.45864" lon="5.75067">
        <ele>377.5</ele>
        <time>2016-03-30T07:20:09Z</time>
      </trkpt>
      <trkpt lat="43.45855" lon="5.75067">
        <ele>377.8</ele>
        <time>2016-03-30T07:20:17Z</time>
      </trkpt>
      <trkpt lat="43.45846" lon="5.75073">
        <ele>378.2</ele>
        <time>2016-03-30T07:20:26Z</time>
      </trkpt>
      <trkpt lat="43.45838" lon="5.75081">
        <ele>378.7</ele>
        <time>2016-03-30T07:20:34Z</time>
      </trkpt>
      <trkpt lat="43.45834" lon="5.75094">
        <ele>379.3</ele>
        <time>2016-03-30T07:20:42Z</time>
      </trkpt>
      <trkpt lat="43.45831" lon="5.75106">
        <ele>380</ele>
        <time>2016-03-30T07:20:50Z</time>
      </trkpt>
      <trkpt lat="43.45824" lon="5.75114">
        <ele>380.7</ele>
        <time>2016-03-30T07:20:59Z</time>
      </trkpt>
      <trkpt lat="43.45817" lon="5.75123">
        <ele>381.4</ele>
        <time>2016-03-30T07:21:07Z</time>
      </trkpt>
      <trkpt lat="43.45809" lon="5.75129">
        <ele>382.1</ele>
        <time>2016-03-30T07:21:16Z</time>
      </trkpt>
      <trkpt lat="43.458" lon="5.75134">
        <ele>382.7</ele>
        <time>2016-03-30T07:21:25Z</time>
      </trkpt>
      <trkpt lat="43.45791" lon="5.75139">
        <ele>383.5</ele>
        <time>2016-03-30T07:21:35Z</time>
      </trkpt>
      <trkpt lat="43.45782" lon="5.75146">
        <ele>384.2</ele>
        <time>2016-03-30T07:21:45Z</time>
      </trkpt>
      <trkpt lat="43.45773" lon="5.7515">
        <ele>385.5</ele>
        <time>2016-03-30T07:21:54Z</time>
      </trkpt>
      <trkpt lat="43.45765" lon="5.75158">
        <ele>386.3</ele>
        <time>2016-03-30T07:22:02Z</time>
      </trkpt>
      <trkpt lat="43.45757" lon="5.75165">
        <ele>387.1</ele>
        <time>2016-03-30T07:22:12Z</time>
      </trkpt>
      <trkpt lat="43.4575" lon="5.75174">
        <ele>387.9</ele>
        <time>2016-03-30T07:22:22Z</time>
      </trkpt>
      <trkpt lat="43.45744" lon="5.75185">
        <ele>388.8</ele>
        <time>2016-03-30T07:22:30Z</time>
      </trkpt>
      <trkpt lat="43.45739" lon="5.75196">
        <ele>389.6</ele>
        <time>2016-03-30T07:22:39Z</time>
      </trkpt>
      <trkpt lat="43.45736" lon="5.75209">
        <ele>390.3</ele>
        <time>2016-03-30T07:22:47Z</time>
      </trkpt>
      <trkpt lat="43.45736" lon="5.75222">
        <ele>391.4</ele>
        <time>2016-03-30T07:22:57Z</time>
      </trkpt>
      <trkpt lat="43.45737" lon="5.75235">
        <ele>392.2</ele>
        <time>2016-03-30T07:23:05Z</time>
      </trkpt>
      <trkpt lat="43.45736" lon="5.75249">
        <ele>393.1</ele>
        <time>2016-03-30T07:23:16Z</time>
      </trkpt>
      <trkpt lat="43.45734" lon="5.75262">
        <ele>393.5</ele>
        <time>2016-03-30T07:23:24Z</time>
      </trkpt>
      <trkpt lat="43.4573" lon="5.75275">
        <ele>393.9</ele>
        <time>2016-03-30T07:23:32Z</time>
      </trkpt>
      <trkpt lat="43.45726" lon="5.75286">
        <ele>394.3</ele>
        <time>2016-03-30T07:23:41Z</time>
      </trkpt>
      <trkpt lat="43.4572" lon="5.75297">
        <ele>395.3</ele>
        <time>2016-03-30T07:23:51Z</time>
      </trkpt>
      <trkpt lat="43.45715" lon="5.75308">
        <ele>395.9</ele>
        <time>2016-03-30T07:24:00Z</time>
      </trkpt>
      <trkpt lat="43.45708" lon="5.75318">
        <ele>396.7</ele>
        <time>2016-03-30T07:24:10Z</time>
      </trkpt>
      <trkpt lat="43.457" lon="5.75325">
        <ele>397.5</ele>
        <time>2016-03-30T07:24:19Z</time>
      </trkpt>
      <trkpt lat="43.4569" lon="5.75322">
        <ele>399.5</ele>
        <time>2016-03-30T07:24:51Z</time>
      </trkpt>
      <trkpt lat="43.45684" lon="5.75313">
        <ele>399.8</ele>
        <time>2016-03-30T07:25:01Z</time>
      </trkpt>
      <trkpt lat="43.45679" lon="5.75301">
        <ele>399.9</ele>
        <time>2016-03-30T07:25:11Z</time>
      </trkpt>
      <trkpt lat="43.45679" lon="5.75287">
        <ele>400.2</ele>
        <time>2016-03-30T07:25:20Z</time>
      </trkpt>
      <trkpt lat="43.45678" lon="5.75275">
        <ele>400.4</ele>
        <time>2016-03-30T07:25:27Z</time>
      </trkpt>
      <trkpt lat="43.4568" lon="5.75262">
        <ele>399.7</ele>
        <time>2016-03-30T07:25:36Z</time>
      </trkpt>
      <trkpt lat="43.45682" lon="5.75248">
        <ele>398.1</ele>
        <time>2016-03-30T07:25:46Z</time>
      </trkpt>
      <trkpt lat="43.45685" lon="5.75235">
        <ele>396.6</ele>
        <time>2016-03-30T07:25:55Z</time>
      </trkpt>
      <trkpt lat="43.45688" lon="5.75223">
        <ele>395.4</ele>
        <time>2016-03-30T07:26:03Z</time>
      </trkpt>
      <trkpt lat="43.45689" lon="5.75209">
        <ele>393.8</ele>
        <time>2016-03-30T07:26:12Z</time>
      </trkpt>
      <trkpt lat="43.45693" lon="5.75197">
        <ele>392.5</ele>
        <time>2016-03-30T07:26:19Z</time>
      </trkpt>
      <trkpt lat="43.45695" lon="5.75185">
        <ele>391.2</ele>
        <time>2016-03-30T07:26:26Z</time>
      </trkpt>
      <trkpt lat="43.45697" lon="5.75172">
        <ele>389.9</ele>
        <time>2016-03-30T07:26:34Z</time>
      </trkpt>
      <trkpt lat="43.45698" lon="5.75158">
        <ele>388.8</ele>
        <time>2016-03-30T07:26:43Z</time>
      </trkpt>
      <trkpt lat="43.45699" lon="5.75145">
        <ele>387.7</ele>
        <time>2016-03-30T07:26:50Z</time>
      </trkpt>
      <trkpt lat="43.45699" lon="5.75133">
        <ele>386.6</ele>
        <time>2016-03-30T07:26:57Z</time>
      </trkpt>
      <trkpt lat="43.45699" lon="5.75119">
        <ele>385.1</ele>
        <time>2016-03-30T07:27:05Z</time>
      </trkpt>
      <trkpt lat="43.45699" lon="5.75105">
        <ele>383.6</ele>
        <time>2016-03-30T07:27:13Z</time>
      </trkpt>
      <trkpt lat="43.45698" lon="5.75092">
        <ele>382.4</ele>
        <time>2016-03-30T07:27:21Z</time>
      </trkpt>
      <trkpt lat="43.45696" lon="5.7508">
        <ele>381.7</ele>
        <time>2016-03-30T07:27:28Z</time>
      </trkpt>
      <trkpt lat="43.45693" lon="5.75067">
        <ele>381.1</ele>
        <time>2016-03-30T07:27:35Z</time>
      </trkpt>
      <trkpt lat="43.45691" lon="5.75054">
        <ele>380.6</ele>
        <time>2016-03-30T07:27:43Z</time>
      </trkpt>
      <trkpt lat="43.45688" lon="5.75041">
        <ele>380.1</ele>
        <time>2016-03-30T07:27:52Z</time>
      </trkpt>
      <trkpt lat="43.45684" lon="5.75029">
        <ele>379.7</ele>
        <time>2016-03-30T07:27:59Z</time>
      </trkpt>
      <trkpt lat="43.45679" lon="5.75017">
        <ele>379.2</ele>
        <time>2016-03-30T07:28:06Z</time>
      </trkpt>
      <trkpt lat="43.45674" lon="5.75005">
        <ele>378.8</ele>
        <time>2016-03-30T07:28:14Z</time>
      </trkpt>
      <trkpt lat="43.45669" lon="5.74995">
        <ele>378.5</ele>
        <time>2016-03-30T07:28:21Z</time>
      </trkpt>
      <trkpt lat="43.45662" lon="5.74987">
        <ele>378.2</ele>
        <time>2016-03-30T07:28:29Z</time>
      </trkpt>
      <trkpt lat="43.45653" lon="5.74981">
        <ele>378</ele>
        <time>2016-03-30T07:28:37Z</time>
      </trkpt>
      <trkpt lat="43.45645" lon="5.74973">
        <ele>377.8</ele>
        <time>2016-03-30T07:28:45Z</time>
      </trkpt>
      <trkpt lat="43.45636" lon="5.74967">
        <ele>377.7</ele>
        <time>2016-03-30T07:28:53Z</time>
      </trkpt>
      <trkpt lat="43.45628" lon="5.7496">
        <ele>377.6</ele>
        <time>2016-03-30T07:29:01Z</time>
      </trkpt>
      <trkpt lat="43.4562" lon="5.74954">
        <ele>377.3</ele>
        <time>2016-03-30T07:29:09Z</time>
      </trkpt>
      <trkpt lat="43.45612" lon="5.74947">
        <ele>376.9</ele>
        <time>2016-03-30T07:29:17Z</time>
      </trkpt>
      <trkpt lat="43.45605" lon="5.74939">
        <ele>376.5</ele>
        <time>2016-03-30T07:29:25Z</time>
      </trkpt>
      <trkpt lat="43.45597" lon="5.74933">
        <ele>376</ele>
        <time>2016-03-30T07:29:32Z</time>
      </trkpt>
      <trkpt lat="43.45589" lon="5.74925">
        <ele>375.5</ele>
        <time>2016-03-30T07:29:40Z</time>
      </trkpt>
      <trkpt lat="43.45582" lon="5.74916">
        <ele>375</ele>
        <time>2016-03-30T07:29:48Z</time>
      </trkpt>
      <trkpt lat="43.45576" lon="5.74905">
        <ele>374.7</ele>
        <time>2016-03-30T07:29:56Z</time>
      </trkpt>
      <trkpt lat="43.4557" lon="5.74895">
        <ele>374.4</ele>
        <time>2016-03-30T07:30:04Z</time>
      </trkpt>
      <trkpt lat="43.45567" lon="5.74883">
        <ele>373.1</ele>
        <time>2016-03-30T07:30:58Z</time>
      </trkpt>
      <trkpt lat="43.45562" lon="5.74872">
        <ele>372.9</ele>
        <time>2016-03-30T07:31:09Z</time>
      </trkpt>
      <trkpt lat="43.45557" lon="5.74862">
        <ele>372.4</ele>
        <time>2016-03-30T07:31:18Z</time>
      </trkpt>
      <trkpt lat="43.45553" lon="5.74851">
        <ele>371.9</ele>
        <time>2016-03-30T07:31:27Z</time>
      </trkpt>
      <trkpt lat="43.45546" lon="5.7484">
        <ele>371.5</ele>
        <time>2016-03-30T07:31:35Z</time>
      </trkpt>
      <trkpt lat="43.45539" lon="5.74832">
        <ele>371.3</ele>
        <time>2016-03-30T07:31:43Z</time>
      </trkpt>
      <trkpt lat="43.45531" lon="5.74823">
        <ele>371.2</ele>
        <time>2016-03-30T07:31:51Z</time>
      </trkpt>
      <trkpt lat="43.45525" lon="5.74813">
        <ele>370.9</ele>
        <time>2016-03-30T07:31:58Z</time>
      </trkpt>
      <trkpt lat="43.45523" lon="5.74801">
        <ele>370.7</ele>
        <time>2016-03-30T07:32:05Z</time>
      </trkpt>
      <trkpt lat="43.45524" lon="5.74787">
        <ele>370.2</ele>
        <time>2016-03-30T07:32:13Z</time>
      </trkpt>
      <trkpt lat="43.45526" lon="5.74774">
        <ele>369.8</ele>
        <time>2016-03-30T07:32:20Z</time>
      </trkpt>
      <trkpt lat="43.45527" lon="5.7476">
        <ele>369.3</ele>
        <time>2016-03-30T07:32:28Z</time>
      </trkpt>
      <trkpt lat="43.45528" lon="5.74746">
        <ele>368.7</ele>
        <time>2016-03-30T07:32:36Z</time>
      </trkpt>
      <trkpt lat="43.45529" lon="5.74733">
        <ele>368.2</ele>
        <time>2016-03-30T07:32:43Z</time>
      </trkpt>
      <trkpt lat="43.45529" lon="5.7472">
        <ele>367.8</ele>
        <time>2016-03-30T07:32:51Z</time>
      </trkpt>
      <trkpt lat="43.45526" lon="5.74707">
        <ele>367.4</ele>
        <time>2016-03-30T07:33:00Z</time>
      </trkpt>
      <trkpt lat="43.45521" lon="5.74696">
        <ele>367</ele>
        <time>2016-03-30T07:33:09Z</time>
      </trkpt>
      <trkpt lat="43.45516" lon="5.74685">
        <ele>366.7</ele>
        <time>2016-03-30T07:33:19Z</time>
      </trkpt>
      <trkpt lat="43.45509" lon="5.74677">
        <ele>366.5</ele>
        <time>2016-03-30T07:33:27Z</time>
      </trkpt>
      <trkpt lat="43.45501" lon="5.7467">
        <ele>366.4</ele>
        <time>2016-03-30T07:33:34Z</time>
      </trkpt>
      <trkpt lat="43.45494" lon="5.74661">
        <ele>366.4</ele>
        <time>2016-03-30T07:33:42Z</time>
      </trkpt>
      <trkpt lat="43.45486" lon="5.74653">
        <ele>366.5</ele>
        <time>2016-03-30T07:33:50Z</time>
      </trkpt>
      <trkpt lat="43.45479" lon="5.74644">
        <ele>366.9</ele>
        <time>2016-03-30T07:33:57Z</time>
      </trkpt>
      <trkpt lat="43.45471" lon="5.74636">
        <ele>367.3</ele>
        <time>2016-03-30T07:34:05Z</time>
      </trkpt>
      <trkpt lat="43.45464" lon="5.74628">
        <ele>367.4</ele>
        <time>2016-03-30T07:34:13Z</time>
      </trkpt>
      <trkpt lat="43.45456" lon="5.74621">
        <ele>367.4</ele>
        <time>2016-03-30T07:34:20Z</time>
      </trkpt>
      <trkpt lat="43.45448" lon="5.74612">
        <ele>367.3</ele>
        <time>2016-03-30T07:34:28Z</time>
      </trkpt>
      <trkpt lat="43.45441" lon="5.74604">
        <ele>367</ele>
        <time>2016-03-30T07:34:36Z</time>
      </trkpt>
      <trkpt lat="43.45433" lon="5.74596">
        <ele>366.6</ele>
        <time>2016-03-30T07:34:44Z</time>
      </trkpt>
      <trkpt lat="43.45425" lon="5.74588">
        <ele>366.2</ele>
        <time>2016-03-30T07:34:51Z</time>
      </trkpt>
      <trkpt lat="43.45417" lon="5.7458">
        <ele>365.7</ele>
        <time>2016-03-30T07:34:59Z</time>
      </trkpt>
      <trkpt lat="43.45409" lon="5.74573">
        <ele>365.2</ele>
        <time>2016-03-30T07:35:07Z</time>
      </trkpt>
      <trkpt lat="43.454" lon="5.74568">
        <ele>364.5</ele>
        <time>2016-03-30T07:35:15Z</time>
      </trkpt>
      <trkpt lat="43.45391" lon="5.74565">
        <ele>364.1</ele>
        <time>2016-03-30T07:35:22Z</time>
      </trkpt>
      <trkpt lat="43.45381" lon="5.74565">
        <ele>363.9</ele>
        <time>2016-03-30T07:35:29Z</time>
      </trkpt>
      <trkpt lat="43.45373" lon="5.7456">
        <ele>363.7</ele>
        <time>2016-03-30T07:35:36Z</time>
      </trkpt>
      <trkpt lat="43.45365" lon="5.74553">
        <ele>363.6</ele>
        <time>2016-03-30T07:35:45Z</time>
      </trkpt>
      <trkpt lat="43.45357" lon="5.74544">
        <ele>363.6</ele>
        <time>2016-03-30T07:35:53Z</time>
      </trkpt>
      <trkpt lat="43.4535" lon="5.74533">
        <ele>363.5</ele>
        <time>2016-03-30T07:36:01Z</time>
      </trkpt>
      <trkpt lat="43.45345" lon="5.74522">
        <ele>363.5</ele>
        <time>2016-03-30T07:36:10Z</time>
      </trkpt>
      <trkpt lat="43.4534" lon="5.74511">
        <ele>363.5</ele>
        <time>2016-03-30T07:36:17Z</time>
      </trkpt>
      <trkpt lat="43.45334" lon="5.74501">
        <ele>363.5</ele>
        <time>2016-03-30T07:36:24Z</time>
      </trkpt>
      <trkpt lat="43.45328" lon="5.74491">
        <ele>363.7</ele>
        <time>2016-03-30T07:36:32Z</time>
      </trkpt>
      <trkpt lat="43.45321" lon="5.74483">
        <ele>364</ele>
        <time>2016-03-30T07:36:42Z</time>
      </trkpt>
      <trkpt lat="43.45313" lon="5.74476">
        <ele>364.2</ele>
        <time>2016-03-30T07:36:50Z</time>
      </trkpt>
      <trkpt lat="43.45305" lon="5.74467">
        <ele>364.5</ele>
        <time>2016-03-30T07:36:57Z</time>
      </trkpt>
      <trkpt lat="43.45296" lon="5.74461">
        <ele>364.8</ele>
        <time>2016-03-30T07:37:06Z</time>
      </trkpt>
      <trkpt lat="43.45288" lon="5.74453">
        <ele>365</ele>
        <time>2016-03-30T07:37:14Z</time>
      </trkpt>
      <trkpt lat="43.45279" lon="5.74445">
        <ele>365.1</ele>
        <time>2016-03-30T07:37:22Z</time>
      </trkpt>
      <trkpt lat="43.45273" lon="5.74436">
        <ele>365.1</ele>
        <time>2016-03-30T07:37:29Z</time>
      </trkpt>
      <trkpt lat="43.45266" lon="5.74428">
        <ele>365.1</ele>
        <time>2016-03-30T07:37:36Z</time>
      </trkpt>
      <trkpt lat="43.45263" lon="5.74415">
        <ele>365.1</ele>
        <time>2016-03-30T07:37:44Z</time>
      </trkpt>
      <trkpt lat="43.45261" lon="5.74403">
        <ele>364.6</ele>
        <time>2016-03-30T07:37:52Z</time>
      </trkpt>
      <trkpt lat="43.45259" lon="5.7439">
        <ele>364.1</ele>
        <time>2016-03-30T07:37:59Z</time>
      </trkpt>
      <trkpt lat="43.45259" lon="5.74377">
        <ele>363.8</ele>
        <time>2016-03-30T07:38:07Z</time>
      </trkpt>
      <trkpt lat="43.45258" lon="5.74364">
        <ele>363.7</ele>
        <time>2016-03-30T07:38:15Z</time>
      </trkpt>
      <trkpt lat="43.45257" lon="5.7435">
        <ele>363.3</ele>
        <time>2016-03-30T07:38:23Z</time>
      </trkpt>
      <trkpt lat="43.45258" lon="5.74337">
        <ele>363.1</ele>
        <time>2016-03-30T07:38:30Z</time>
      </trkpt>
      <trkpt lat="43.45256" lon="5.74324">
        <ele>363</ele>
        <time>2016-03-30T07:38:38Z</time>
      </trkpt>
      <trkpt lat="43.45253" lon="5.74311">
        <ele>362.9</ele>
        <time>2016-03-30T07:38:54Z</time>
      </trkpt>
      <trkpt lat="43.45254" lon="5.74298">
        <ele>362.8</ele>
        <time>2016-03-30T07:39:02Z</time>
      </trkpt>
      <trkpt lat="43.45256" lon="5.74286">
        <ele>362.8</ele>
        <time>2016-03-30T07:39:10Z</time>
      </trkpt>
      <trkpt lat="43.45256" lon="5.74273">
        <ele>362.6</ele>
        <time>2016-03-30T07:39:18Z</time>
      </trkpt>
      <trkpt lat="43.45252" lon="5.7426">
        <ele>362.5</ele>
        <time>2016-03-30T07:39:26Z</time>
      </trkpt>
      <trkpt lat="43.45251" lon="5.74247">
        <ele>362.5</ele>
        <time>2016-03-30T07:39:34Z</time>
      </trkpt>
      <trkpt lat="43.45251" lon="5.74234">
        <ele>362.3</ele>
        <time>2016-03-30T07:39:42Z</time>
      </trkpt>
      <trkpt lat="43.45248" lon="5.74221">
        <ele>361.9</ele>
        <time>2016-03-30T07:39:50Z</time>
      </trkpt>
      <trkpt lat="43.45243" lon="5.74209">
        <ele>361.5</ele>
        <time>2016-03-30T07:39:59Z</time>
      </trkpt>
      <trkpt lat="43.45234" lon="5.74206">
        <ele>361.3</ele>
        <time>2016-03-30T07:40:07Z</time>
      </trkpt>
      <trkpt lat="43.45224" lon="5.74204">
        <ele>361.2</ele>
        <time>2016-03-30T07:40:17Z</time>
      </trkpt>
      <trkpt lat="43.45216" lon="5.742">
        <ele>361.2</ele>
        <time>2016-03-30T07:40:26Z</time>
      </trkpt>
      <trkpt lat="43.45208" lon="5.74193">
        <ele>361.4</ele>
        <time>2016-03-30T07:40:35Z</time>
      </trkpt>
      <trkpt lat="43.452" lon="5.74185">
        <ele>361.7</ele>
        <time>2016-03-30T07:40:42Z</time>
      </trkpt>
      <trkpt lat="43.45191" lon="5.74184">
        <ele>362.1</ele>
        <time>2016-03-30T07:40:51Z</time>
      </trkpt>
      <trkpt lat="43.45182" lon="5.7418">
        <ele>362.4</ele>
        <time>2016-03-30T07:40:59Z</time>
      </trkpt>
      <trkpt lat="43.45173" lon="5.74176">
        <ele>362.9</ele>
        <time>2016-03-30T07:41:08Z</time>
      </trkpt>
      <trkpt lat="43.45163" lon="5.74171">
        <ele>363.3</ele>
        <time>2016-03-30T07:41:16Z</time>
      </trkpt>
      <trkpt lat="43.45154" lon="5.74167">
        <ele>363.6</ele>
        <time>2016-03-30T07:41:24Z</time>
      </trkpt>
      <trkpt lat="43.45148" lon="5.74157">
        <ele>363.8</ele>
        <time>2016-03-30T07:41:32Z</time>
      </trkpt>
      <trkpt lat="43.45142" lon="5.74147">
        <ele>364</ele>
        <time>2016-03-30T07:41:41Z</time>
      </trkpt>
      <trkpt lat="43.45134" lon="5.7414">
        <ele>364.3</ele>
        <time>2016-03-30T07:41:49Z</time>
      </trkpt>
      <trkpt lat="43.45125" lon="5.74136">
        <ele>365</ele>
        <time>2016-03-30T07:41:59Z</time>
      </trkpt>
      <trkpt lat="43.45116" lon="5.7413">
        <ele>365.4</ele>
        <time>2016-03-30T07:42:08Z</time>
      </trkpt>
      <trkpt lat="43.45107" lon="5.74125">
        <ele>365.9</ele>
        <time>2016-03-30T07:42:17Z</time>
      </trkpt>
      <trkpt lat="43.45099" lon="5.7412">
        <ele>366.2</ele>
        <time>2016-03-30T07:42:26Z</time>
      </trkpt>
      <trkpt lat="43.4509" lon="5.7412">
        <ele>366.7</ele>
        <time>2016-03-30T07:42:34Z</time>
      </trkpt>
      <trkpt lat="43.4508" lon="5.74125">
        <ele>367.4</ele>
        <time>2016-03-30T07:42:44Z</time>
      </trkpt>
      <trkpt lat="43.45071" lon="5.7412">
        <ele>368.4</ele>
        <time>2016-03-30T07:42:53Z</time>
      </trkpt>
      <trkpt lat="43.45062" lon="5.74123">
        <ele>369.6</ele>
        <time>2016-03-30T07:43:03Z</time>
      </trkpt>
      <trkpt lat="43.45054" lon="5.74117">
        <ele>370.1</ele>
        <time>2016-03-30T07:43:12Z</time>
      </trkpt>
      <trkpt lat="43.45044" lon="5.74112">
        <ele>371.2</ele>
        <time>2016-03-30T07:43:22Z</time>
      </trkpt>
      <trkpt lat="43.45037" lon="5.74106">
        <ele>371.8</ele>
        <time>2016-03-30T07:43:31Z</time>
      </trkpt>
      <trkpt lat="43.45027" lon="5.74101">
        <ele>372.2</ele>
        <time>2016-03-30T07:43:40Z</time>
      </trkpt>
      <trkpt lat="43.45017" lon="5.74109">
        <ele>372.2</ele>
        <time>2016-03-30T07:47:44Z</time>
      </trkpt>
      <trkpt lat="43.45009" lon="5.74114">
        <ele>372.2</ele>
        <time>2016-03-30T07:47:51Z</time>
      </trkpt>
      <trkpt lat="43.44999" lon="5.74115">
        <ele>372.7</ele>
        <time>2016-03-30T07:48:00Z</time>
      </trkpt>
      <trkpt lat="43.44989" lon="5.74116">
        <ele>373.4</ele>
        <time>2016-03-30T07:48:09Z</time>
      </trkpt>
      <trkpt lat="43.44981" lon="5.7412">
        <ele>374.4</ele>
        <time>2016-03-30T07:48:19Z</time>
      </trkpt>
      <trkpt lat="43.44972" lon="5.74125">
        <ele>375.5</ele>
        <time>2016-03-30T07:48:30Z</time>
      </trkpt>
      <trkpt lat="43.44963" lon="5.74125">
        <ele>377.2</ele>
        <time>2016-03-30T07:48:43Z</time>
      </trkpt>
      <trkpt lat="43.44954" lon="5.74131">
        <ele>378.7</ele>
        <time>2016-03-30T07:48:56Z</time>
      </trkpt>
      <trkpt lat="43.44946" lon="5.74137">
        <ele>379.8</ele>
        <time>2016-03-30T07:49:07Z</time>
      </trkpt>
      <trkpt lat="43.44938" lon="5.74142">
        <ele>381.5</ele>
        <time>2016-03-30T07:49:23Z</time>
      </trkpt>
      <trkpt lat="43.44929" lon="5.74146">
        <ele>382.8</ele>
        <time>2016-03-30T07:49:36Z</time>
      </trkpt>
      <trkpt lat="43.4492" lon="5.74147">
        <ele>383.9</ele>
        <time>2016-03-30T07:49:47Z</time>
      </trkpt>
      <trkpt lat="43.44911" lon="5.74154">
        <ele>384.8</ele>
        <time>2016-03-30T07:49:56Z</time>
      </trkpt>
      <trkpt lat="43.44903" lon="5.74159">
        <ele>386.8</ele>
        <time>2016-03-30T07:50:08Z</time>
      </trkpt>
      <trkpt lat="43.44894" lon="5.74163">
        <ele>389.3</ele>
        <time>2016-03-30T07:50:26Z</time>
      </trkpt>
      <trkpt lat="43.44885" lon="5.74165">
        <ele>390.6</ele>
        <time>2016-03-30T07:50:40Z</time>
      </trkpt>
      <trkpt lat="43.44876" lon="5.74169">
        <ele>391.9</ele>
        <time>2016-03-30T07:50:51Z</time>
      </trkpt>
      <trkpt lat="43.44868" lon="5.74178">
        <ele>393.4</ele>
        <time>2016-03-30T07:51:05Z</time>
      </trkpt>
      <trkpt lat="43.44863" lon="5.74189">
        <ele>394.8</ele>
        <time>2016-03-30T07:51:16Z</time>
      </trkpt>
      <trkpt lat="43.44856" lon="5.74197">
        <ele>395.7</ele>
        <time>2016-03-30T07:51:31Z</time>
      </trkpt>
      <trkpt lat="43.44854" lon="5.74211">
        <ele>396.1</ele>
        <time>2016-03-30T07:51:46Z</time>
      </trkpt>
      <trkpt lat="43.4485" lon="5.74223">
        <ele>396.7</ele>
        <time>2016-03-30T07:51:56Z</time>
      </trkpt>
      <trkpt lat="43.44846" lon="5.74235">
        <ele>397.2</ele>
        <time>2016-03-30T07:52:08Z</time>
      </trkpt>
      <trkpt lat="43.44841" lon="5.74246">
        <ele>397.4</ele>
        <time>2016-03-30T07:52:16Z</time>
      </trkpt>
      <trkpt lat="43.44835" lon="5.74257">
        <ele>397.7</ele>
        <time>2016-03-30T07:52:25Z</time>
      </trkpt>
      <trkpt lat="43.44828" lon="5.74265">
        <ele>398.1</ele>
        <time>2016-03-30T07:52:34Z</time>
      </trkpt>
      <trkpt lat="43.44819" lon="5.74269">
        <ele>399</ele>
        <time>2016-03-30T07:52:46Z</time>
      </trkpt>
      <trkpt lat="43.44812" lon="5.74278">
        <ele>399.5</ele>
        <time>2016-03-30T07:52:55Z</time>
      </trkpt>
      <trkpt lat="43.44806" lon="5.74289">
        <ele>400.1</ele>
        <time>2016-03-30T07:53:03Z</time>
      </trkpt>
      <trkpt lat="43.44801" lon="5.743">
        <ele>400.7</ele>
        <time>2016-03-30T07:53:12Z</time>
      </trkpt>
      <trkpt lat="43.44795" lon="5.7431">
        <ele>401.4</ele>
        <time>2016-03-30T07:53:22Z</time>
      </trkpt>
      <trkpt lat="43.44791" lon="5.74321">
        <ele>402.1</ele>
        <time>2016-03-30T07:53:31Z</time>
      </trkpt>
      <trkpt lat="43.44789" lon="5.74334">
        <ele>402.9</ele>
        <time>2016-03-30T07:53:41Z</time>
      </trkpt>
      <trkpt lat="43.44784" lon="5.74345">
        <ele>404</ele>
        <time>2016-03-30T07:53:51Z</time>
      </trkpt>
      <trkpt lat="43.44777" lon="5.74353">
        <ele>405</ele>
        <time>2016-03-30T07:54:04Z</time>
      </trkpt>
      <trkpt lat="43.44776" lon="5.74366">
        <ele>405.9</ele>
        <time>2016-03-30T07:54:11Z</time>
      </trkpt>
      <trkpt lat="43.44773" lon="5.74378">
        <ele>407</ele>
        <time>2016-03-30T07:54:21Z</time>
      </trkpt>
      <trkpt lat="43.4477" lon="5.7439">
        <ele>408.4</ele>
        <time>2016-03-30T07:54:31Z</time>
      </trkpt>
      <trkpt lat="43.44768" lon="5.74402">
        <ele>410.1</ele>
        <time>2016-03-30T07:54:42Z</time>
      </trkpt>
      <trkpt lat="43.44763" lon="5.74413">
        <ele>411.1</ele>
        <time>2016-03-30T07:54:53Z</time>
      </trkpt>
      <trkpt lat="43.44761" lon="5.74425">
        <ele>411.8</ele>
        <time>2016-03-30T07:55:03Z</time>
      </trkpt>
      <trkpt lat="43.44758" lon="5.74438">
        <ele>412.3</ele>
        <time>2016-03-30T07:55:13Z</time>
      </trkpt>
      <trkpt lat="43.44753" lon="5.7445">
        <ele>413.6</ele>
        <time>2016-03-30T07:55:24Z</time>
      </trkpt>
      <trkpt lat="43.44752" lon="5.74463">
        <ele>414.6</ele>
        <time>2016-03-30T07:55:33Z</time>
      </trkpt>
      <trkpt lat="43.44751" lon="5.74475">
        <ele>415.7</ele>
        <time>2016-03-30T07:55:50Z</time>
      </trkpt>
      <trkpt lat="43.44743" lon="5.74483">
        <ele>417.1</ele>
        <time>2016-03-30T07:56:20Z</time>
      </trkpt>
      <trkpt lat="43.44734" lon="5.74488">
        <ele>417.9</ele>
        <time>2016-03-30T07:56:31Z</time>
      </trkpt>
      <trkpt lat="43.44724" lon="5.74492">
        <ele>418.5</ele>
        <time>2016-03-30T07:56:41Z</time>
      </trkpt>
      <trkpt lat="43.44718" lon="5.74502">
        <ele>418.7</ele>
        <time>2016-03-30T07:56:49Z</time>
      </trkpt>
      <trkpt lat="43.44709" lon="5.74508">
        <ele>418.9</ele>
        <time>2016-03-30T07:56:58Z</time>
      </trkpt>
      <trkpt lat="43.44702" lon="5.74515">
        <ele>419.6</ele>
        <time>2016-03-30T07:57:08Z</time>
      </trkpt>
      <trkpt lat="43.44693" lon="5.74519">
        <ele>421.5</ele>
        <time>2016-03-30T07:57:23Z</time>
      </trkpt>
      <trkpt lat="43.44684" lon="5.74517">
        <ele>423</ele>
        <time>2016-03-30T07:57:37Z</time>
      </trkpt>
      <trkpt lat="43.44676" lon="5.74524">
        <ele>424.1</ele>
        <time>2016-03-30T07:57:52Z</time>
      </trkpt>
      <trkpt lat="43.44673" lon="5.74536">
        <ele>424.3</ele>
        <time>2016-03-30T07:58:00Z</time>
      </trkpt>
      <trkpt lat="43.44667" lon="5.74547">
        <ele>424.7</ele>
        <time>2016-03-30T07:58:12Z</time>
      </trkpt>
      <trkpt lat="43.44658" lon="5.74546">
        <ele>425.1</ele>
        <time>2016-03-30T07:58:23Z</time>
      </trkpt>
      <trkpt lat="43.44649" lon="5.74543">
        <ele>425.9</ele>
        <time>2016-03-30T07:58:37Z</time>
      </trkpt>
      <trkpt lat="43.44639" lon="5.74543">
        <ele>426.5</ele>
        <time>2016-03-30T07:58:48Z</time>
      </trkpt>
      <trkpt lat="43.4463" lon="5.74542">
        <ele>425.8</ele>
        <time>2016-03-30T07:59:25Z</time>
      </trkpt>
      <trkpt lat="43.44621" lon="5.74545">
        <ele>425.5</ele>
        <time>2016-03-30T07:59:38Z</time>
      </trkpt>
      <trkpt lat="43.44623" lon="5.74558">
        <ele>425.1</ele>
        <time>2016-03-30T07:59:51Z</time>
      </trkpt>
      <trkpt lat="43.44627" lon="5.7457">
        <ele>425.2</ele>
        <time>2016-03-30T07:59:56Z</time>
      </trkpt>
      <trkpt lat="43.44623" lon="5.74582">
        <ele>425.8</ele>
        <time>2016-03-30T08:00:05Z</time>
      </trkpt>
      <trkpt lat="43.44621" lon="5.74595">
        <ele>426</ele>
        <time>2016-03-30T08:00:09Z</time>
      </trkpt>
      <trkpt lat="43.44613" lon="5.74589">
        <ele>426.4</ele>
        <time>2016-03-30T08:00:15Z</time>
      </trkpt>
      <trkpt lat="43.44616" lon="5.74603">
        <ele>427.2</ele>
        <time>2016-03-30T08:00:27Z</time>
      </trkpt>
      <trkpt lat="43.44609" lon="5.74613">
        <ele>428.5</ele>
        <time>2016-03-30T08:00:37Z</time>
      </trkpt>
      <trkpt lat="43.446" lon="5.74616">
        <ele>429.4</ele>
        <time>2016-03-30T08:00:45Z</time>
      </trkpt>
      <trkpt lat="43.4459" lon="5.74617">
        <ele>431</ele>
        <time>2016-03-30T08:00:56Z</time>
      </trkpt>
      <trkpt lat="43.4458" lon="5.74621">
        <ele>431.6</ele>
        <time>2016-03-30T08:01:05Z</time>
      </trkpt>
      <trkpt lat="43.44571" lon="5.74617">
        <ele>432.6</ele>
        <time>2016-03-30T08:01:24Z</time>
      </trkpt>
      <trkpt lat="43.44562" lon="5.74619">
        <ele>434.2</ele>
        <time>2016-03-30T08:01:48Z</time>
      </trkpt>
      <trkpt lat="43.44554" lon="5.74626">
        <ele>436.6</ele>
        <time>2016-03-30T08:02:13Z</time>
      </trkpt>
      <trkpt lat="43.44549" lon="5.74637">
        <ele>437.9</ele>
        <time>2016-03-30T08:02:33Z</time>
      </trkpt>
      <trkpt lat="43.44544" lon="5.74648">
        <ele>438.3</ele>
        <time>2016-03-30T08:03:21Z</time>
      </trkpt>
      <trkpt lat="43.44537" lon="5.74657">
        <ele>438.8</ele>
        <time>2016-03-30T08:03:34Z</time>
      </trkpt>
      <trkpt lat="43.4453" lon="5.74665">
        <ele>439.9</ele>
        <time>2016-03-30T08:03:47Z</time>
      </trkpt>
      <trkpt lat="43.44523" lon="5.74675">
        <ele>441.8</ele>
        <time>2016-03-30T08:04:01Z</time>
      </trkpt>
      <trkpt lat="43.44518" lon="5.74686">
        <ele>443</ele>
        <time>2016-03-30T08:04:11Z</time>
      </trkpt>
      <trkpt lat="43.44514" lon="5.74698">
        <ele>443.8</ele>
        <time>2016-03-30T08:04:19Z</time>
      </trkpt>
      <trkpt lat="43.44505" lon="5.74704">
        <ele>445.3</ele>
        <time>2016-03-30T08:04:33Z</time>
      </trkpt>
      <trkpt lat="43.44498" lon="5.74711">
        <ele>446.5</ele>
        <time>2016-03-30T08:04:47Z</time>
      </trkpt>
      <trkpt lat="43.44492" lon="5.74721">
        <ele>448.4</ele>
        <time>2016-03-30T08:05:06Z</time>
      </trkpt>
      <trkpt lat="43.44485" lon="5.7473">
        <ele>450.8</ele>
        <time>2016-03-30T08:05:27Z</time>
      </trkpt>
      <trkpt lat="43.44478" lon="5.74738">
        <ele>452.4</ele>
        <time>2016-03-30T08:05:43Z</time>
      </trkpt>
      <trkpt lat="43.44472" lon="5.74748">
        <ele>454.1</ele>
        <time>2016-03-30T08:06:02Z</time>
      </trkpt>
      <trkpt lat="43.44464" lon="5.7476">
        <ele>456.9</ele>
        <time>2016-03-30T08:06:56Z</time>
      </trkpt>
      <trkpt lat="43.44459" lon="5.7477">
        <ele>458.4</ele>
        <time>2016-03-30T08:07:12Z</time>
      </trkpt>
      <trkpt lat="43.44455" lon="5.74781">
        <ele>459.3</ele>
        <time>2016-03-30T08:07:24Z</time>
      </trkpt>
      <trkpt lat="43.44449" lon="5.74791">
        <ele>460.4</ele>
        <time>2016-03-30T08:07:37Z</time>
      </trkpt>
      <trkpt lat="43.44448" lon="5.74804">
        <ele>461.7</ele>
        <time>2016-03-30T08:07:51Z</time>
      </trkpt>
      <trkpt lat="43.44446" lon="5.74816">
        <ele>462.7</ele>
        <time>2016-03-30T08:08:04Z</time>
      </trkpt>
      <trkpt lat="43.44445" lon="5.74829">
        <ele>463.7</ele>
        <time>2016-03-30T08:08:16Z</time>
      </trkpt>
      <trkpt lat="43.44446" lon="5.74842">
        <ele>465.2</ele>
        <time>2016-03-30T08:08:32Z</time>
      </trkpt>
      <trkpt lat="43.44443" lon="5.74855">
        <ele>466.7</ele>
        <time>2016-03-30T08:08:47Z</time>
      </trkpt>
      <trkpt lat="43.44441" lon="5.74867">
        <ele>468.9</ele>
        <time>2016-03-30T08:09:04Z</time>
      </trkpt>
      <trkpt lat="43.4444" lon="5.7488">
        <ele>471.6</ele>
        <time>2016-03-30T08:11:05Z</time>
      </trkpt>
      <trkpt lat="43.4443" lon="5.74894">
        <ele>471.8</ele>
        <time>2016-03-30T08:14:22Z</time>
      </trkpt>
      <trkpt lat="43.44423" lon="5.74903">
        <ele>473.4</ele>
        <time>2016-03-30T08:14:37Z</time>
      </trkpt>
      <trkpt lat="43.44419" lon="5.74915">
        <ele>474.7</ele>
        <time>2016-03-30T08:14:49Z</time>
      </trkpt>
      <trkpt lat="43.44419" lon="5.74928">
        <ele>476.5</ele>
        <time>2016-03-30T08:15:03Z</time>
      </trkpt>
      <trkpt lat="43.44417" lon="5.74941">
        <ele>477.8</ele>
        <time>2016-03-30T08:15:15Z</time>
      </trkpt>
      <trkpt lat="43.44416" lon="5.74955">
        <ele>479.2</ele>
        <time>2016-03-30T08:15:27Z</time>
      </trkpt>
      <trkpt lat="43.44415" lon="5.74967">
        <ele>480.3</ele>
        <time>2016-03-30T08:15:39Z</time>
      </trkpt>
      <trkpt lat="43.44414" lon="5.7498">
        <ele>481.5</ele>
        <time>2016-03-30T08:15:51Z</time>
      </trkpt>
      <trkpt lat="43.44413" lon="5.74993">
        <ele>482.7</ele>
        <time>2016-03-30T08:16:04Z</time>
      </trkpt>
      <trkpt lat="43.44412" lon="5.75005">
        <ele>484</ele>
        <time>2016-03-30T08:16:17Z</time>
      </trkpt>
      <trkpt lat="43.4441" lon="5.75018">
        <ele>485.4</ele>
        <time>2016-03-30T08:16:30Z</time>
      </trkpt>
      <trkpt lat="43.44411" lon="5.7503">
        <ele>487</ele>
        <time>2016-03-30T08:16:42Z</time>
      </trkpt>
      <trkpt lat="43.4441" lon="5.75043">
        <ele>488.7</ele>
        <time>2016-03-30T08:16:55Z</time>
      </trkpt>
      <trkpt lat="43.44407" lon="5.75055">
        <ele>489.8</ele>
        <time>2016-03-30T08:17:07Z</time>
      </trkpt>
      <trkpt lat="43.44408" lon="5.75068">
        <ele>491.2</ele>
        <time>2016-03-30T08:17:21Z</time>
      </trkpt>
      <trkpt lat="43.44409" lon="5.7508">
        <ele>493.2</ele>
        <time>2016-03-30T08:17:39Z</time>
      </trkpt>
      <trkpt lat="43.44412" lon="5.75093">
        <ele>494.2</ele>
        <time>2016-03-30T08:17:51Z</time>
      </trkpt>
      <trkpt lat="43.44418" lon="5.75102">
        <ele>495.1</ele>
        <time>2016-03-30T08:18:04Z</time>
      </trkpt>
      <trkpt lat="43.44419" lon="5.75115">
        <ele>496.1</ele>
        <time>2016-03-30T08:18:19Z</time>
      </trkpt>
      <trkpt lat="43.44421" lon="5.75128">
        <ele>497.1</ele>
        <time>2016-03-30T08:18:31Z</time>
      </trkpt>
      <trkpt lat="43.44416" lon="5.75139">
        <ele>498.4</ele>
        <time>2016-03-30T08:18:47Z</time>
      </trkpt>
      <trkpt lat="43.44415" lon="5.75152">
        <ele>499.9</ele>
        <time>2016-03-30T08:19:02Z</time>
      </trkpt>
      <trkpt lat="43.4441" lon="5.75163">
        <ele>501.7</ele>
        <time>2016-03-30T08:19:16Z</time>
      </trkpt>
      <trkpt lat="43.44403" lon="5.75171">
        <ele>503.5</ele>
        <time>2016-03-30T08:19:32Z</time>
      </trkpt>
      <trkpt lat="43.44395" lon="5.75178">
        <ele>505.6</ele>
        <time>2016-03-30T08:19:49Z</time>
      </trkpt>
      <trkpt lat="43.44387" lon="5.75185">
        <ele>507.6</ele>
        <time>2016-03-30T08:20:08Z</time>
      </trkpt>
      <trkpt lat="43.44378" lon="5.75185">
        <ele>508.7</ele>
        <time>2016-03-30T08:20:22Z</time>
      </trkpt>
      <trkpt lat="43.44369" lon="5.75188">
        <ele>510.4</ele>
        <time>2016-03-30T08:20:37Z</time>
      </trkpt>
      <trkpt lat="43.44362" lon="5.75196">
        <ele>512.2</ele>
        <time>2016-03-30T08:20:52Z</time>
      </trkpt>
      <trkpt lat="43.44354" lon="5.75202">
        <ele>514.8</ele>
        <time>2016-03-30T08:21:11Z</time>
      </trkpt>
      <trkpt lat="43.44345" lon="5.75206">
        <ele>516.2</ele>
        <time>2016-03-30T08:21:24Z</time>
      </trkpt>
      <trkpt lat="43.44337" lon="5.75213">
        <ele>517.6</ele>
        <time>2016-03-30T08:21:39Z</time>
      </trkpt>
      <trkpt lat="43.44331" lon="5.75204">
        <ele>519</ele>
        <time>2016-03-30T08:21:57Z</time>
      </trkpt>
      <trkpt lat="43.44324" lon="5.75213">
        <ele>519.7</ele>
        <time>2016-03-30T08:22:32Z</time>
      </trkpt>
      <trkpt lat="43.44321" lon="5.75226">
        <ele>520.2</ele>
        <time>2016-03-30T08:22:45Z</time>
      </trkpt>
      <trkpt lat="43.44314" lon="5.75235">
        <ele>521.5</ele>
        <time>2016-03-30T08:23:01Z</time>
      </trkpt>
      <trkpt lat="43.44306" lon="5.75249">
        <ele>525.6</ele>
        <time>2016-03-30T08:23:43Z</time>
      </trkpt>
      <trkpt lat="43.44304" lon="5.75261">
        <ele>526.3</ele>
        <time>2016-03-30T08:24:07Z</time>
      </trkpt>
      <trkpt lat="43.44302" lon="5.75274">
        <ele>526.6</ele>
        <time>2016-03-30T08:24:17Z</time>
      </trkpt>
      <trkpt lat="43.44298" lon="5.75286">
        <ele>527.4</ele>
        <time>2016-03-30T08:24:27Z</time>
      </trkpt>
      <trkpt lat="43.44293" lon="5.75297">
        <ele>528.3</ele>
        <time>2016-03-30T08:24:34Z</time>
      </trkpt>
      <trkpt lat="43.44283" lon="5.75298">
        <ele>530</ele>
        <time>2016-03-30T08:24:45Z</time>
      </trkpt>
      <trkpt lat="43.44287" lon="5.75309">
        <ele>531.9</ele>
        <time>2016-03-30T08:24:57Z</time>
      </trkpt>
      <trkpt lat="43.44292" lon="5.75321">
        <ele>533.7</ele>
        <time>2016-03-30T08:25:11Z</time>
      </trkpt>
      <trkpt lat="43.44302" lon="5.75323">
        <ele>535.2</ele>
        <time>2016-03-30T08:25:25Z</time>
      </trkpt>
      <trkpt lat="43.44312" lon="5.75319">
        <ele>535.7</ele>
        <time>2016-03-30T08:25:33Z</time>
      </trkpt>
      <trkpt lat="43.44321" lon="5.75316">
        <ele>536.3</ele>
        <time>2016-03-30T08:25:42Z</time>
      </trkpt>
      <trkpt lat="43.44331" lon="5.75314">
        <ele>538.7</ele>
        <time>2016-03-30T08:26:29Z</time>
      </trkpt>
      <trkpt lat="43.4434" lon="5.75315">
        <ele>540.1</ele>
        <time>2016-03-30T08:26:43Z</time>
      </trkpt>
      <trkpt lat="43.44349" lon="5.75314">
        <ele>541.6</ele>
        <time>2016-03-30T08:26:55Z</time>
      </trkpt>
      <trkpt lat="43.44359" lon="5.75313">
        <ele>544.2</ele>
        <time>2016-03-30T08:27:12Z</time>
      </trkpt>
      <trkpt lat="43.44367" lon="5.75319">
        <ele>546.2</ele>
        <time>2016-03-30T08:27:27Z</time>
      </trkpt>
      <trkpt lat="43.44374" lon="5.75327">
        <ele>549.1</ele>
        <time>2016-03-30T08:27:46Z</time>
      </trkpt>
      <trkpt lat="43.4438" lon="5.75336">
        <ele>551.9</ele>
        <time>2016-03-30T08:28:05Z</time>
      </trkpt>
      <trkpt lat="43.44387" lon="5.75346">
        <ele>554.2</ele>
        <time>2016-03-30T08:28:22Z</time>
      </trkpt>
      <trkpt lat="43.44392" lon="5.75357">
        <ele>555.9</ele>
        <time>2016-03-30T08:28:37Z</time>
      </trkpt>
      <trkpt lat="43.44397" lon="5.75368">
        <ele>557.2</ele>
        <time>2016-03-30T08:28:50Z</time>
      </trkpt>
      <trkpt lat="43.44404" lon="5.75376">
        <ele>560</ele>
        <time>2016-03-30T08:29:24Z</time>
      </trkpt>
      <trkpt lat="43.44407" lon="5.75388">
        <ele>560.4</ele>
        <time>2016-03-30T08:29:37Z</time>
      </trkpt>
      <trkpt lat="43.44417" lon="5.7539">
        <ele>560.9</ele>
        <time>2016-03-30T08:29:47Z</time>
      </trkpt>
      <trkpt lat="43.44425" lon="5.75396">
        <ele>561.2</ele>
        <time>2016-03-30T08:29:52Z</time>
      </trkpt>
      <trkpt lat="43.4443" lon="5.75399">
        <ele>562.3</ele>
        <time>2016-03-30T08:30:04Z</time>
      </trkpt>
      <trkpt lat="43.44439" lon="5.75397">
        <ele>563</ele>
        <time>2016-03-30T08:30:12Z</time>
      </trkpt>
      <trkpt lat="43.44448" lon="5.754">
        <ele>563.7</ele>
        <time>2016-03-30T08:30:22Z</time>
      </trkpt>
      <trkpt lat="43.44458" lon="5.75401">
        <ele>565.8</ele>
        <time>2016-03-30T08:30:36Z</time>
      </trkpt>
      <trkpt lat="43.44467" lon="5.75403">
        <ele>567.6</ele>
        <time>2016-03-30T08:30:47Z</time>
      </trkpt>
      <trkpt lat="43.44476" lon="5.75406">
        <ele>569.2</ele>
        <time>2016-03-30T08:31:02Z</time>
      </trkpt>
      <trkpt lat="43.44486" lon="5.75411">
        <ele>570.9</ele>
        <time>2016-03-30T08:31:15Z</time>
      </trkpt>
      <trkpt lat="43.44489" lon="5.75423">
        <ele>572.2</ele>
        <time>2016-03-30T08:31:29Z</time>
      </trkpt>
      <trkpt lat="43.44491" lon="5.75436">
        <ele>573.5</ele>
        <time>2016-03-30T08:31:43Z</time>
      </trkpt>
      <trkpt lat="43.44498" lon="5.75444">
        <ele>574</ele>
        <time>2016-03-30T08:31:53Z</time>
      </trkpt>
      <trkpt lat="43.44505" lon="5.75454">
        <ele>574.4</ele>
        <time>2016-03-30T08:32:07Z</time>
      </trkpt>
      <trkpt lat="43.44508" lon="5.75466">
        <ele>574.5</ele>
        <time>2016-03-30T08:32:18Z</time>
      </trkpt>
      <trkpt lat="43.44512" lon="5.75478">
        <ele>574.6</ele>
        <time>2016-03-30T08:32:29Z</time>
      </trkpt>
      <trkpt lat="43.44519" lon="5.75486">
        <ele>574.8</ele>
        <time>2016-03-30T08:32:44Z</time>
      </trkpt>
      <trkpt lat="43.44525" lon="5.75496">
        <ele>575.1</ele>
        <time>2016-03-30T08:32:52Z</time>
      </trkpt>
      <trkpt lat="43.44531" lon="5.75506">
        <ele>576.5</ele>
        <time>2016-03-30T08:33:12Z</time>
      </trkpt>
      <trkpt lat="43.44538" lon="5.75514">
        <ele>577.5</ele>
        <time>2016-03-30T08:33:28Z</time>
      </trkpt>
      <trkpt lat="43.44547" lon="5.75518">
        <ele>578</ele>
        <time>2016-03-30T08:33:38Z</time>
      </trkpt>
      <trkpt lat="43.44556" lon="5.7552">
        <ele>579.1</ele>
        <time>2016-03-30T08:33:50Z</time>
      </trkpt>
      <trkpt lat="43.44564" lon="5.75527">
        <ele>580.9</ele>
        <time>2016-03-30T08:34:03Z</time>
      </trkpt>
      <trkpt lat="43.44573" lon="5.75524">
        <ele>582.4</ele>
        <time>2016-03-30T08:34:14Z</time>
      </trkpt>
      <trkpt lat="43.44583" lon="5.75521">
        <ele>583.4</ele>
        <time>2016-03-30T08:34:23Z</time>
      </trkpt>
      <trkpt lat="43.44593" lon="5.75522">
        <ele>584.7</ele>
        <time>2016-03-30T08:34:37Z</time>
      </trkpt>
      <trkpt lat="43.44601" lon="5.75527">
        <ele>586.1</ele>
        <time>2016-03-30T08:34:51Z</time>
      </trkpt>
      <trkpt lat="43.44611" lon="5.75529">
        <ele>587.9</ele>
        <time>2016-03-30T08:35:06Z</time>
      </trkpt>
      <trkpt lat="43.4462" lon="5.75529">
        <ele>590.1</ele>
        <time>2016-03-30T08:35:20Z</time>
      </trkpt>
      <trkpt lat="43.44629" lon="5.75525">
        <ele>592.3</ele>
        <time>2016-03-30T08:35:34Z</time>
      </trkpt>
      <trkpt lat="43.44638" lon="5.75523">
        <ele>595</ele>
        <time>2016-03-30T08:36:01Z</time>
      </trkpt>
      <trkpt lat="43.44647" lon="5.75522">
        <ele>595.8</ele>
        <time>2016-03-30T08:36:13Z</time>
      </trkpt>
      <trkpt lat="43.44655" lon="5.75527">
        <ele>597.1</ele>
        <time>2016-03-30T08:36:33Z</time>
      </trkpt>
      <trkpt lat="43.44657" lon="5.7554">
        <ele>598.3</ele>
        <time>2016-03-30T08:36:45Z</time>
      </trkpt>
      <trkpt lat="43.44663" lon="5.75551">
        <ele>598.7</ele>
        <time>2016-03-30T08:36:50Z</time>
      </trkpt>
      <trkpt lat="43.44672" lon="5.75558">
        <ele>598.9</ele>
        <time>2016-03-30T08:36:53Z</time>
      </trkpt>
      <trkpt lat="43.4468" lon="5.75547">
        <ele>599.2</ele>
        <time>2016-03-30T08:36:56Z</time>
      </trkpt>
      <trkpt lat="43.44686" lon="5.75535">
        <ele>601.8</ele>
        <time>2016-03-30T08:37:15Z</time>
      </trkpt>
      <trkpt lat="43.44695" lon="5.7553">
        <ele>603</ele>
        <time>2016-03-30T08:37:25Z</time>
      </trkpt>
      <trkpt lat="43.447" lon="5.75517">
        <ele>604.7</ele>
        <time>2016-03-30T08:37:39Z</time>
      </trkpt>
      <trkpt lat="43.44709" lon="5.75516">
        <ele>606.2</ele>
        <time>2016-03-30T08:37:51Z</time>
      </trkpt>
      <trkpt lat="43.44716" lon="5.75526">
        <ele>607.1</ele>
        <time>2016-03-30T08:38:03Z</time>
      </trkpt>
      <trkpt lat="43.44725" lon="5.75531">
        <ele>607.7</ele>
        <time>2016-03-30T08:38:14Z</time>
      </trkpt>
      <trkpt lat="43.44731" lon="5.7554">
        <ele>608.7</ele>
        <time>2016-03-30T08:38:26Z</time>
      </trkpt>
      <trkpt lat="43.44731" lon="5.75553">
        <ele>611.2</ele>
        <time>2016-03-30T08:38:44Z</time>
      </trkpt>
      <trkpt lat="43.4473" lon="5.75565">
        <ele>613.9</ele>
        <time>2016-03-30T08:39:01Z</time>
      </trkpt>
      <trkpt lat="43.44728" lon="5.75578">
        <ele>618.7</ele>
        <time>2016-03-30T08:40:16Z</time>
      </trkpt>
      <trkpt lat="43.44735" lon="5.75588">
        <ele>621</ele>
        <time>2016-03-30T08:41:07Z</time>
      </trkpt>
      <trkpt lat="43.44746" lon="5.75588">
        <ele>620.7</ele>
        <time>2016-03-30T08:41:18Z</time>
      </trkpt>
      <trkpt lat="43.44756" lon="5.75587">
        <ele>620.7</ele>
        <time>2016-03-30T08:41:25Z</time>
      </trkpt>
      <trkpt lat="43.44765" lon="5.75585">
        <ele>620.7</ele>
        <time>2016-03-30T08:41:34Z</time>
      </trkpt>
      <trkpt lat="43.44774" lon="5.75584">
        <ele>620.9</ele>
        <time>2016-03-30T08:41:44Z</time>
      </trkpt>
      <trkpt lat="43.44784" lon="5.75583">
        <ele>621.2</ele>
        <time>2016-03-30T08:41:55Z</time>
      </trkpt>
      <trkpt lat="43.44793" lon="5.75583">
        <ele>621.4</ele>
        <time>2016-03-30T08:42:03Z</time>
      </trkpt>
      <trkpt lat="43.44802" lon="5.75582">
        <ele>621.8</ele>
        <time>2016-03-30T08:42:13Z</time>
      </trkpt>
      <trkpt lat="43.44811" lon="5.75577">
        <ele>622.1</ele>
        <time>2016-03-30T08:42:23Z</time>
      </trkpt>
      <trkpt lat="43.44815" lon="5.75566">
        <ele>622.8</ele>
        <time>2016-03-30T08:42:36Z</time>
      </trkpt>
      <trkpt lat="43.44821" lon="5.75556">
        <ele>624.1</ele>
        <time>2016-03-30T08:43:41Z</time>
      </trkpt>
      <trkpt lat="43.4483" lon="5.75558">
        <ele>624.8</ele>
        <time>2016-03-30T08:48:47Z</time>
      </trkpt>
      <trkpt lat="43.44837" lon="5.75567">
        <ele>623.9</ele>
        <time>2016-03-30T08:48:56Z</time>
      </trkpt>
      <trkpt lat="43.44845" lon="5.75573">
        <ele>623.5</ele>
        <time>2016-03-30T08:49:00Z</time>
      </trkpt>
      <trkpt lat="43.44855" lon="5.75577">
        <ele>622.6</ele>
        <time>2016-03-30T08:49:08Z</time>
      </trkpt>
      <trkpt lat="43.44865" lon="5.75578">
        <ele>621.6</ele>
        <time>2016-03-30T08:49:16Z</time>
      </trkpt>
      <trkpt lat="43.44874" lon="5.75583">
        <ele>620.5</ele>
        <time>2016-03-30T08:49:24Z</time>
      </trkpt>
      <trkpt lat="43.44882" lon="5.7559">
        <ele>619.1</ele>
        <time>2016-03-30T08:49:33Z</time>
      </trkpt>
      <trkpt lat="43.4489" lon="5.75597">
        <ele>618.1</ele>
        <time>2016-03-30T08:49:41Z</time>
      </trkpt>
      <trkpt lat="43.44899" lon="5.75603">
        <ele>617.5</ele>
        <time>2016-03-30T08:49:48Z</time>
      </trkpt>
      <trkpt lat="43.44908" lon="5.75608">
        <ele>617</ele>
        <time>2016-03-30T08:49:55Z</time>
      </trkpt>
      <trkpt lat="43.44916" lon="5.75616">
        <ele>616.6</ele>
        <time>2016-03-30T08:50:04Z</time>
      </trkpt>
      <trkpt lat="43.44922" lon="5.75626">
        <ele>616.4</ele>
        <time>2016-03-30T08:50:12Z</time>
      </trkpt>
      <trkpt lat="43.44928" lon="5.75637">
        <ele>616</ele>
        <time>2016-03-30T08:50:21Z</time>
      </trkpt>
      <trkpt lat="43.44934" lon="5.75647">
        <ele>615.5</ele>
        <time>2016-03-30T08:50:29Z</time>
      </trkpt>
      <trkpt lat="43.44941" lon="5.75655">
        <ele>615.2</ele>
        <time>2016-03-30T08:50:36Z</time>
      </trkpt>
      <trkpt lat="43.44949" lon="5.75663">
        <ele>614.9</ele>
        <time>2016-03-30T08:50:44Z</time>
      </trkpt>
      <trkpt lat="43.44956" lon="5.75671">
        <ele>614.4</ele>
        <time>2016-03-30T08:50:51Z</time>
      </trkpt>
      <trkpt lat="43.44962" lon="5.75683">
        <ele>613.9</ele>
        <time>2016-03-30T08:51:03Z</time>
      </trkpt>
      <trkpt lat="43.44969" lon="5.75693">
        <ele>613.6</ele>
        <time>2016-03-30T08:51:30Z</time>
      </trkpt>
      <trkpt lat="43.44969" lon="5.75706">
        <ele>613.8</ele>
        <time>2016-03-30T08:52:10Z</time>
      </trkpt>
      <trkpt lat="43.44972" lon="5.75719">
        <ele>613.3</ele>
        <time>2016-03-30T08:52:23Z</time>
      </trkpt>
      <trkpt lat="43.44975" lon="5.75731">
        <ele>613.1</ele>
        <time>2016-03-30T08:54:26Z</time>
      </trkpt>
      <trkpt lat="43.44978" lon="5.75743">
        <ele>613.3</ele>
        <time>2016-03-30T08:54:36Z</time>
      </trkpt>
      <trkpt lat="43.44982" lon="5.75754">
        <ele>613.5</ele>
        <time>2016-03-30T08:54:45Z</time>
      </trkpt>
      <trkpt lat="43.44989" lon="5.75764">
        <ele>613.6</ele>
        <time>2016-03-30T08:54:54Z</time>
      </trkpt>
      <trkpt lat="43.44998" lon="5.75771">
        <ele>613.7</ele>
        <time>2016-03-30T08:55:01Z</time>
      </trkpt>
      <trkpt lat="43.45007" lon="5.75778">
        <ele>613.7</ele>
        <time>2016-03-30T08:55:08Z</time>
      </trkpt>
      <trkpt lat="43.45015" lon="5.75786">
        <ele>614.1</ele>
        <time>2016-03-30T08:55:18Z</time>
      </trkpt>
      <trkpt lat="43.45022" lon="5.75796">
        <ele>616.3</ele>
        <time>2016-03-30T08:56:32Z</time>
      </trkpt>
      <trkpt lat="43.45028" lon="5.75806">
        <ele>616.4</ele>
        <time>2016-03-30T08:56:41Z</time>
      </trkpt>
      <trkpt lat="43.45032" lon="5.75818">
        <ele>616.4</ele>
        <time>2016-03-30T08:56:51Z</time>
      </trkpt>
      <trkpt lat="43.45034" lon="5.7583">
        <ele>616.3</ele>
        <time>2016-03-30T08:56:59Z</time>
      </trkpt>
      <trkpt lat="43.45035" lon="5.75843">
        <ele>615.9</ele>
        <time>2016-03-30T08:57:07Z</time>
      </trkpt>
      <trkpt lat="43.45035" lon="5.75855">
        <ele>615.4</ele>
        <time>2016-03-30T08:57:14Z</time>
      </trkpt>
      <trkpt lat="43.45033" lon="5.75868">
        <ele>614.8</ele>
        <time>2016-03-30T08:57:22Z</time>
      </trkpt>
      <trkpt lat="43.45035" lon="5.75881">
        <ele>614.2</ele>
        <time>2016-03-30T08:57:31Z</time>
      </trkpt>
      <trkpt lat="43.4504" lon="5.75891">
        <ele>614</ele>
        <time>2016-03-30T08:57:38Z</time>
      </trkpt>
      <trkpt lat="43.45046" lon="5.75901">
        <ele>613.7</ele>
        <time>2016-03-30T08:57:46Z</time>
      </trkpt>
      <trkpt lat="43.45055" lon="5.75907">
        <ele>613.4</ele>
        <time>2016-03-30T08:57:53Z</time>
      </trkpt>
      <trkpt lat="43.45064" lon="5.75911">
        <ele>613.1</ele>
        <time>2016-03-30T08:58:00Z</time>
      </trkpt>
      <trkpt lat="43.45073" lon="5.75915">
        <ele>612.9</ele>
        <time>2016-03-30T08:58:07Z</time>
      </trkpt>
      <trkpt lat="43.45081" lon="5.75922">
        <ele>612.8</ele>
        <time>2016-03-30T08:58:17Z</time>
      </trkpt>
      <trkpt lat="43.4509" lon="5.75924">
        <ele>612.8</ele>
        <time>2016-03-30T08:58:25Z</time>
      </trkpt>
      <trkpt lat="43.45101" lon="5.75928">
        <ele>612.8</ele>
        <time>2016-03-30T08:58:32Z</time>
      </trkpt>
      <trkpt lat="43.45108" lon="5.75935">
        <ele>613.1</ele>
        <time>2016-03-30T08:58:41Z</time>
      </trkpt>
      <trkpt lat="43.45114" lon="5.75946">
        <ele>613.9</ele>
        <time>2016-03-30T08:58:51Z</time>
      </trkpt>
      <trkpt lat="43.45122" lon="5.75953">
        <ele>614.2</ele>
        <time>2016-03-30T08:58:58Z</time>
      </trkpt>
      <trkpt lat="43.45129" lon="5.75961">
        <ele>614.5</ele>
        <time>2016-03-30T08:59:06Z</time>
      </trkpt>
      <trkpt lat="43.45138" lon="5.75968">
        <ele>614.7</ele>
        <time>2016-03-30T08:59:14Z</time>
      </trkpt>
      <trkpt lat="43.45148" lon="5.75971">
        <ele>615.3</ele>
        <time>2016-03-30T08:59:24Z</time>
      </trkpt>
      <trkpt lat="43.45158" lon="5.75971">
        <ele>615.7</ele>
        <time>2016-03-30T08:59:30Z</time>
      </trkpt>
      <trkpt lat="43.45167" lon="5.75964">
        <ele>616.4</ele>
        <time>2016-03-30T08:59:42Z</time>
      </trkpt>
      <trkpt lat="43.45172" lon="5.75953">
        <ele>617.6</ele>
        <time>2016-03-30T08:59:54Z</time>
      </trkpt>
      <trkpt lat="43.4518" lon="5.75946">
        <ele>620</ele>
        <time>2016-03-30T09:00:09Z</time>
      </trkpt>
      <trkpt lat="43.45191" lon="5.75945">
        <ele>625.8</ele>
        <time>2016-03-30T09:02:29Z</time>
      </trkpt>
      <trkpt lat="43.45183" lon="5.75951">
        <ele>622.5</ele>
        <time>2016-03-30T09:12:07Z</time>
      </trkpt>
      <trkpt lat="43.45175" lon="5.75958">
        <ele>621.1</ele>
        <time>2016-03-30T09:12:13Z</time>
      </trkpt>
      <trkpt lat="43.45168" lon="5.75966">
        <ele>620.3</ele>
        <time>2016-03-30T09:12:17Z</time>
      </trkpt>
      <trkpt lat="43.45165" lon="5.75979">
        <ele>619</ele>
        <time>2016-03-30T09:12:25Z</time>
      </trkpt>
      <trkpt lat="43.45165" lon="5.75992">
        <ele>617.9</ele>
        <time>2016-03-30T09:12:33Z</time>
      </trkpt>
      <trkpt lat="43.45165" lon="5.76006">
        <ele>617.2</ele>
        <time>2016-03-30T09:12:41Z</time>
      </trkpt>
      <trkpt lat="43.45165" lon="5.76019">
        <ele>616.5</ele>
        <time>2016-03-30T09:12:49Z</time>
      </trkpt>
      <trkpt lat="43.45165" lon="5.76033">
        <ele>615.8</ele>
        <time>2016-03-30T09:12:57Z</time>
      </trkpt>
      <trkpt lat="43.45167" lon="5.76046">
        <ele>614.8</ele>
        <time>2016-03-30T09:13:04Z</time>
      </trkpt>
      <trkpt lat="43.45167" lon="5.76059">
        <ele>613.4</ele>
        <time>2016-03-30T09:13:12Z</time>
      </trkpt>
      <trkpt lat="43.45167" lon="5.76072">
        <ele>612.1</ele>
        <time>2016-03-30T09:13:19Z</time>
      </trkpt>
      <trkpt lat="43.45171" lon="5.76084">
        <ele>610.7</ele>
        <time>2016-03-30T09:13:26Z</time>
      </trkpt>
      <trkpt lat="43.45175" lon="5.76096">
        <ele>609.4</ele>
        <time>2016-03-30T09:13:34Z</time>
      </trkpt>
      <trkpt lat="43.45184" lon="5.76099">
        <ele>606.8</ele>
        <time>2016-03-30T09:14:44Z</time>
      </trkpt>
      <trkpt lat="43.45191" lon="5.76108">
        <ele>606.6</ele>
        <time>2016-03-30T09:14:52Z</time>
      </trkpt>
      <trkpt lat="43.45195" lon="5.7612">
        <ele>606.6</ele>
        <time>2016-03-30T09:15:00Z</time>
      </trkpt>
      <trkpt lat="43.45199" lon="5.76132">
        <ele>606.5</ele>
        <time>2016-03-30T09:15:08Z</time>
      </trkpt>
      <trkpt lat="43.45206" lon="5.76141">
        <ele>606.9</ele>
        <time>2016-03-30T09:15:16Z</time>
      </trkpt>
      <trkpt lat="43.4521" lon="5.76153">
        <ele>607.5</ele>
        <time>2016-03-30T09:15:24Z</time>
      </trkpt>
      <trkpt lat="43.45214" lon="5.76165">
        <ele>608.3</ele>
        <time>2016-03-30T09:15:32Z</time>
      </trkpt>
      <trkpt lat="43.45219" lon="5.76176">
        <ele>609</ele>
        <time>2016-03-30T09:15:40Z</time>
      </trkpt>
      <trkpt lat="43.45227" lon="5.76183">
        <ele>609.6</ele>
        <time>2016-03-30T09:15:48Z</time>
      </trkpt>
      <trkpt lat="43.45235" lon="5.7619">
        <ele>610.2</ele>
        <time>2016-03-30T09:15:55Z</time>
      </trkpt>
      <trkpt lat="43.45244" lon="5.76195">
        <ele>610.8</ele>
        <time>2016-03-30T09:16:03Z</time>
      </trkpt>
      <trkpt lat="43.45251" lon="5.76204">
        <ele>611.8</ele>
        <time>2016-03-30T09:16:13Z</time>
      </trkpt>
      <trkpt lat="43.4526" lon="5.76209">
        <ele>612.6</ele>
        <time>2016-03-30T09:16:21Z</time>
      </trkpt>
      <trkpt lat="43.45269" lon="5.7621">
        <ele>613.4</ele>
        <time>2016-03-30T09:16:28Z</time>
      </trkpt>
      <trkpt lat="43.45276" lon="5.76221">
        <ele>614.8</ele>
        <time>2016-03-30T09:16:54Z</time>
      </trkpt>
      <trkpt lat="43.45281" lon="5.76233">
        <ele>612.9</ele>
        <time>2016-03-30T09:17:05Z</time>
      </trkpt>
      <trkpt lat="43.45283" lon="5.76245">
        <ele>612.1</ele>
        <time>2016-03-30T09:17:13Z</time>
      </trkpt>
      <trkpt lat="43.45285" lon="5.76258">
        <ele>610.9</ele>
        <time>2016-03-30T09:17:22Z</time>
      </trkpt>
      <trkpt lat="43.45289" lon="5.76272">
        <ele>609.6</ele>
        <time>2016-03-30T09:17:30Z</time>
      </trkpt>
      <trkpt lat="43.45291" lon="5.76285">
        <ele>608.2</ele>
        <time>2016-03-30T09:17:38Z</time>
      </trkpt>
      <trkpt lat="43.45296" lon="5.76296">
        <ele>607.2</ele>
        <time>2016-03-30T09:17:46Z</time>
      </trkpt>
      <trkpt lat="43.45302" lon="5.76305">
        <ele>606</ele>
        <time>2016-03-30T09:17:55Z</time>
      </trkpt>
      <trkpt lat="43.45307" lon="5.76316">
        <ele>604.6</ele>
        <time>2016-03-30T09:18:04Z</time>
      </trkpt>
      <trkpt lat="43.45311" lon="5.76328">
        <ele>603.9</ele>
        <time>2016-03-30T09:18:13Z</time>
      </trkpt>
      <trkpt lat="43.45316" lon="5.76339">
        <ele>603.5</ele>
        <time>2016-03-30T09:18:21Z</time>
      </trkpt>
      <trkpt lat="43.45323" lon="5.76348">
        <ele>603.3</ele>
        <time>2016-03-30T09:18:29Z</time>
      </trkpt>
      <trkpt lat="43.45329" lon="5.76357">
        <ele>603.1</ele>
        <time>2016-03-30T09:18:39Z</time>
      </trkpt>
      <trkpt lat="43.45335" lon="5.7637">
        <ele>601.8</ele>
        <time>2016-03-30T09:19:43Z</time>
      </trkpt>
      <trkpt lat="43.45341" lon="5.76381">
        <ele>601.6</ele>
        <time>2016-03-30T09:19:49Z</time>
      </trkpt>
      <trkpt lat="43.45347" lon="5.76393">
        <ele>601.1</ele>
        <time>2016-03-30T09:19:57Z</time>
      </trkpt>
      <trkpt lat="43.45355" lon="5.76401">
        <ele>600.5</ele>
        <time>2016-03-30T09:20:06Z</time>
      </trkpt>
      <trkpt lat="43.45362" lon="5.76408">
        <ele>600.1</ele>
        <time>2016-03-30T09:20:13Z</time>
      </trkpt>
      <trkpt lat="43.45371" lon="5.76414">
        <ele>599.8</ele>
        <time>2016-03-30T09:20:21Z</time>
      </trkpt>
      <trkpt lat="43.4538" lon="5.7642">
        <ele>599.6</ele>
        <time>2016-03-30T09:20:29Z</time>
      </trkpt>
      <trkpt lat="43.45389" lon="5.76423">
        <ele>599</ele>
        <time>2016-03-30T09:20:39Z</time>
      </trkpt>
      <trkpt lat="43.45398" lon="5.76419">
        <ele>598.6</ele>
        <time>2016-03-30T09:20:49Z</time>
      </trkpt>
      <trkpt lat="43.45412" lon="5.76409">
        <ele>604.4</ele>
        <time>2016-03-30T09:21:34Z</time>
      </trkpt>
      <trkpt lat="43.45417" lon="5.76397">
        <ele>606.1</ele>
        <time>2016-03-30T09:21:49Z</time>
      </trkpt>
      <trkpt lat="43.45416" lon="5.76385">
        <ele>607.2</ele>
        <time>2016-03-30T09:22:02Z</time>
      </trkpt>
      <trkpt lat="43.45423" lon="5.76377">
        <ele>608.4</ele>
        <time>2016-03-30T09:22:19Z</time>
      </trkpt>
      <trkpt lat="43.45431" lon="5.76372">
        <ele>609.2</ele>
        <time>2016-03-30T09:23:59Z</time>
      </trkpt>
      <trkpt lat="43.4544" lon="5.76367">
        <ele>611.9</ele>
        <time>2016-03-30T09:24:48Z</time>
      </trkpt>
      <trkpt lat="43.45448" lon="5.76371">
        <ele>611.8</ele>
        <time>2016-03-30T09:25:04Z</time>
      </trkpt>
      <trkpt lat="43.45439" lon="5.76371">
        <ele>608.8</ele>
        <time>2016-03-30T10:07:12Z</time>
      </trkpt>
      <trkpt lat="43.45431" lon="5.76377">
        <ele>607.2</ele>
        <time>2016-03-30T10:07:53Z</time>
      </trkpt>
      <trkpt lat="43.45424" lon="5.76386">
        <ele>605.7</ele>
        <time>2016-03-30T10:08:21Z</time>
      </trkpt>
      <trkpt lat="43.45416" lon="5.76393">
        <ele>605.5</ele>
        <time>2016-03-30T10:08:38Z</time>
      </trkpt>
      <trkpt lat="43.45414" lon="5.76406">
        <ele>605.2</ele>
        <time>2016-03-30T10:08:56Z</time>
      </trkpt>
      <trkpt lat="43.45405" lon="5.76407">
        <ele>604.5</ele>
        <time>2016-03-30T10:09:14Z</time>
      </trkpt>
      <trkpt lat="43.45396" lon="5.76412">
        <ele>603.2</ele>
        <time>2016-03-30T10:09:30Z</time>
      </trkpt>
      <trkpt lat="43.45396" lon="5.76424">
        <ele>599.8</ele>
        <time>2016-03-30T10:10:09Z</time>
      </trkpt>
      <trkpt lat="43.45393" lon="5.76436">
        <ele>598.9</ele>
        <time>2016-03-30T10:10:17Z</time>
      </trkpt>
      <trkpt lat="43.4539" lon="5.7645">
        <ele>593.5</ele>
        <time>2016-03-30T10:11:57Z</time>
      </trkpt>
      <trkpt lat="43.45387" lon="5.76461">
        <ele>592.3</ele>
        <time>2016-03-30T10:12:07Z</time>
      </trkpt>
      <trkpt lat="43.45387" lon="5.76475">
        <ele>591.5</ele>
        <time>2016-03-30T10:12:14Z</time>
      </trkpt>
      <trkpt lat="43.45385" lon="5.7649">
        <ele>590.8</ele>
        <time>2016-03-30T10:12:23Z</time>
      </trkpt>
      <trkpt lat="43.45384" lon="5.76503">
        <ele>590</ele>
        <time>2016-03-30T10:12:33Z</time>
      </trkpt>
      <trkpt lat="43.45384" lon="5.76517">
        <ele>589.5</ele>
        <time>2016-03-30T10:12:40Z</time>
      </trkpt>
      <trkpt lat="43.45387" lon="5.7653">
        <ele>588.8</ele>
        <time>2016-03-30T10:12:47Z</time>
      </trkpt>
      <trkpt lat="43.45396" lon="5.76539">
        <ele>588.1</ele>
        <time>2016-03-30T10:12:54Z</time>
      </trkpt>
      <trkpt lat="43.45403" lon="5.76549">
        <ele>587.5</ele>
        <time>2016-03-30T10:13:03Z</time>
      </trkpt>
      <trkpt lat="43.45408" lon="5.76561">
        <ele>587.2</ele>
        <time>2016-03-30T10:13:12Z</time>
      </trkpt>
      <trkpt lat="43.45403" lon="5.76572">
        <ele>587.1</ele>
        <time>2016-03-30T10:13:18Z</time>
      </trkpt>
      <trkpt lat="43.45401" lon="5.76586">
        <ele>587.1</ele>
        <time>2016-03-30T10:13:23Z</time>
      </trkpt>
      <trkpt lat="43.45398" lon="5.76601">
        <ele>587.4</ele>
        <time>2016-03-30T10:13:31Z</time>
      </trkpt>
      <trkpt lat="43.45399" lon="5.76615">
        <ele>587.4</ele>
        <time>2016-03-30T10:13:36Z</time>
      </trkpt>
      <trkpt lat="43.454" lon="5.76628">
        <ele>587</ele>
        <time>2016-03-30T10:13:50Z</time>
      </trkpt>
      <trkpt lat="43.45399" lon="5.76641">
        <ele>586.8</ele>
        <time>2016-03-30T10:13:57Z</time>
      </trkpt>
      <trkpt lat="43.45397" lon="5.76653">
        <ele>586.6</ele>
        <time>2016-03-30T10:14:03Z</time>
      </trkpt>
      <trkpt lat="43.45394" lon="5.76666">
        <ele>586.2</ele>
        <time>2016-03-30T10:14:15Z</time>
      </trkpt>
      <trkpt lat="43.4539" lon="5.76677">
        <ele>585.9</ele>
        <time>2016-03-30T10:14:24Z</time>
      </trkpt>
      <trkpt lat="43.45391" lon="5.7669">
        <ele>585</ele>
        <time>2016-03-30T10:14:33Z</time>
      </trkpt>
      <trkpt lat="43.45389" lon="5.76704">
        <ele>584.5</ele>
        <time>2016-03-30T10:14:38Z</time>
      </trkpt>
      <trkpt lat="43.45393" lon="5.76716">
        <ele>584</ele>
        <time>2016-03-30T10:14:45Z</time>
      </trkpt>
      <trkpt lat="43.45401" lon="5.76724">
        <ele>583.5</ele>
        <time>2016-03-30T10:14:52Z</time>
      </trkpt>
      <trkpt lat="43.45409" lon="5.76734">
        <ele>583.2</ele>
        <time>2016-03-30T10:15:03Z</time>
      </trkpt>
      <trkpt lat="43.45416" lon="5.76742">
        <ele>583.1</ele>
        <time>2016-03-30T10:15:10Z</time>
      </trkpt>
      <trkpt lat="43.45419" lon="5.76754">
        <ele>583.4</ele>
        <time>2016-03-30T10:15:22Z</time>
      </trkpt>
      <trkpt lat="43.45417" lon="5.76768">
        <ele>584.3</ele>
        <time>2016-03-30T10:15:29Z</time>
      </trkpt>
      <trkpt lat="43.45409" lon="5.76775">
        <ele>586.8</ele>
        <time>2016-03-30T10:15:47Z</time>
      </trkpt>
      <trkpt lat="43.45406" lon="5.76787">
        <ele>589.3</ele>
        <time>2016-03-30T10:16:01Z</time>
      </trkpt>
      <trkpt lat="43.45405" lon="5.768">
        <ele>591.1</ele>
        <time>2016-03-30T10:16:12Z</time>
      </trkpt>
      <trkpt lat="43.45407" lon="5.76813">
        <ele>592.9</ele>
        <time>2016-03-30T10:16:23Z</time>
      </trkpt>
      <trkpt lat="43.45409" lon="5.76826">
        <ele>594.8</ele>
        <time>2016-03-30T10:16:34Z</time>
      </trkpt>
      <trkpt lat="43.45415" lon="5.76836">
        <ele>596.3</ele>
        <time>2016-03-30T10:16:42Z</time>
      </trkpt>
      <trkpt lat="43.45423" lon="5.76842">
        <ele>597.7</ele>
        <time>2016-03-30T10:16:50Z</time>
      </trkpt>
      <trkpt lat="43.45428" lon="5.76853">
        <ele>599.4</ele>
        <time>2016-03-30T10:17:00Z</time>
      </trkpt>
      <trkpt lat="43.45435" lon="5.7686">
        <ele>601</ele>
        <time>2016-03-30T10:17:11Z</time>
      </trkpt>
      <trkpt lat="43.45443" lon="5.76868">
        <ele>602.6</ele>
        <time>2016-03-30T10:17:26Z</time>
      </trkpt>
      <trkpt lat="43.45444" lon="5.76882">
        <ele>604.5</ele>
        <time>2016-03-30T10:17:39Z</time>
      </trkpt>
      <trkpt lat="43.45451" lon="5.7689">
        <ele>607</ele>
        <time>2016-03-30T10:18:09Z</time>
      </trkpt>
      <trkpt lat="43.45451" lon="5.76903">
        <ele>606.9</ele>
        <time>2016-03-30T10:18:15Z</time>
      </trkpt>
      <trkpt lat="43.45451" lon="5.76915">
        <ele>606</ele>
        <time>2016-03-30T10:18:22Z</time>
      </trkpt>
      <trkpt lat="43.45448" lon="5.76927">
        <ele>602.5</ele>
        <time>2016-03-30T10:18:39Z</time>
      </trkpt>
      <trkpt lat="43.4544" lon="5.76936">
        <ele>599.8</ele>
        <time>2016-03-30T10:18:52Z</time>
      </trkpt>
      <trkpt lat="43.45432" lon="5.76944">
        <ele>597.8</ele>
        <time>2016-03-30T10:19:02Z</time>
      </trkpt>
      <trkpt lat="43.45428" lon="5.76956">
        <ele>596.3</ele>
        <time>2016-03-30T10:19:11Z</time>
      </trkpt>
      <trkpt lat="43.4542" lon="5.76965">
        <ele>595.1</ele>
        <time>2016-03-30T10:19:19Z</time>
      </trkpt>
      <trkpt lat="43.45421" lon="5.76979">
        <ele>594.4</ele>
        <time>2016-03-30T10:19:25Z</time>
      </trkpt>
      <trkpt lat="43.45422" lon="5.76993">
        <ele>593.8</ele>
        <time>2016-03-30T10:19:30Z</time>
      </trkpt>
      <trkpt lat="43.45428" lon="5.77003">
        <ele>593.1</ele>
        <time>2016-03-30T10:19:37Z</time>
      </trkpt>
      <trkpt lat="43.45437" lon="5.77007">
        <ele>591.9</ele>
        <time>2016-03-30T10:19:45Z</time>
      </trkpt>
      <trkpt lat="43.45442" lon="5.77018">
        <ele>593.9</ele>
        <time>2016-03-30T10:23:26Z</time>
      </trkpt>
      <trkpt lat="43.4544" lon="5.77031">
        <ele>594</ele>
        <time>2016-03-30T10:23:33Z</time>
      </trkpt>
      <trkpt lat="43.45437" lon="5.77044">
        <ele>594.4</ele>
        <time>2016-03-30T10:23:41Z</time>
      </trkpt>
      <trkpt lat="43.45434" lon="5.77057">
        <ele>594.8</ele>
        <time>2016-03-30T10:23:50Z</time>
      </trkpt>
      <trkpt lat="43.45434" lon="5.77072">
        <ele>594.9</ele>
        <time>2016-03-30T10:23:58Z</time>
      </trkpt>
      <trkpt lat="43.45435" lon="5.77085">
        <ele>594.9</ele>
        <time>2016-03-30T10:24:06Z</time>
      </trkpt>
      <trkpt lat="43.45442" lon="5.77095">
        <ele>594.9</ele>
        <time>2016-03-30T10:24:17Z</time>
      </trkpt>
      <trkpt lat="43.4545" lon="5.77102">
        <ele>595.7</ele>
        <time>2016-03-30T10:24:26Z</time>
      </trkpt>
      <trkpt lat="43.45459" lon="5.77107">
        <ele>596.3</ele>
        <time>2016-03-30T10:24:32Z</time>
      </trkpt>
      <trkpt lat="43.4546" lon="5.77121">
        <ele>597.5</ele>
        <time>2016-03-30T10:24:42Z</time>
      </trkpt>
      <trkpt lat="43.45455" lon="5.77131">
        <ele>601.5</ele>
        <time>2016-03-30T10:25:07Z</time>
      </trkpt>
      <trkpt lat="43.45451" lon="5.77143">
        <ele>604.2</ele>
        <time>2016-03-30T10:25:21Z</time>
      </trkpt>
      <trkpt lat="43.45454" lon="5.77156">
        <ele>606</ele>
        <time>2016-03-30T10:25:31Z</time>
      </trkpt>
      <trkpt lat="43.45458" lon="5.77167">
        <ele>607.4</ele>
        <time>2016-03-30T10:25:40Z</time>
      </trkpt>
      <trkpt lat="43.45465" lon="5.77176">
        <ele>609</ele>
        <time>2016-03-30T10:25:50Z</time>
      </trkpt>
      <trkpt lat="43.45471" lon="5.77185">
        <ele>610.7</ele>
        <time>2016-03-30T10:26:01Z</time>
      </trkpt>
      <trkpt lat="43.45481" lon="5.77183">
        <ele>611.6</ele>
        <time>2016-03-30T10:26:07Z</time>
      </trkpt>
      <trkpt lat="43.4549" lon="5.77184">
        <ele>613.4</ele>
        <time>2016-03-30T10:26:20Z</time>
      </trkpt>
      <trkpt lat="43.455" lon="5.77185">
        <ele>614.3</ele>
        <time>2016-03-30T10:26:27Z</time>
      </trkpt>
      <trkpt lat="43.45509" lon="5.7719">
        <ele>615.4</ele>
        <time>2016-03-30T10:26:34Z</time>
      </trkpt>
      <trkpt lat="43.45506" lon="5.77202">
        <ele>616.3</ele>
        <time>2016-03-30T10:26:42Z</time>
      </trkpt>
      <trkpt lat="43.45498" lon="5.77209">
        <ele>619.9</ele>
        <time>2016-03-30T10:28:58Z</time>
      </trkpt>
      <trkpt lat="43.45499" lon="5.77222">
        <ele>620.3</ele>
        <time>2016-03-30T10:29:09Z</time>
      </trkpt>
      <trkpt lat="43.45493" lon="5.77232">
        <ele>620.6</ele>
        <time>2016-03-30T10:29:17Z</time>
      </trkpt>
      <trkpt lat="43.4549" lon="5.77244">
        <ele>621.2</ele>
        <time>2016-03-30T10:29:26Z</time>
      </trkpt>
      <trkpt lat="43.45491" lon="5.77257">
        <ele>622.3</ele>
        <time>2016-03-30T10:29:36Z</time>
      </trkpt>
      <trkpt lat="43.45493" lon="5.7727">
        <ele>623.6</ele>
        <time>2016-03-30T10:29:48Z</time>
      </trkpt>
      <trkpt lat="43.45494" lon="5.77282">
        <ele>624.8</ele>
        <time>2016-03-30T10:29:58Z</time>
      </trkpt>
      <trkpt lat="43.45495" lon="5.77295">
        <ele>626.3</ele>
        <time>2016-03-30T10:30:10Z</time>
      </trkpt>
      <trkpt lat="43.45499" lon="5.77307">
        <ele>627.8</ele>
        <time>2016-03-30T10:30:23Z</time>
      </trkpt>
      <trkpt lat="43.45501" lon="5.77321">
        <ele>628.9</ele>
        <time>2016-03-30T10:30:31Z</time>
      </trkpt>
      <trkpt lat="43.45502" lon="5.77334">
        <ele>630.8</ele>
        <time>2016-03-30T10:30:43Z</time>
      </trkpt>
      <trkpt lat="43.45507" lon="5.77345">
        <ele>633.2</ele>
        <time>2016-03-30T10:30:59Z</time>
      </trkpt>
      <trkpt lat="43.45512" lon="5.77357">
        <ele>634.9</ele>
        <time>2016-03-30T10:31:09Z</time>
      </trkpt>
      <trkpt lat="43.45517" lon="5.77367">
        <ele>636.4</ele>
        <time>2016-03-30T10:31:19Z</time>
      </trkpt>
      <trkpt lat="43.4552" lon="5.7738">
        <ele>637.4</ele>
        <time>2016-03-30T10:31:27Z</time>
      </trkpt>
      <trkpt lat="43.45521" lon="5.77393">
        <ele>638.4</ele>
        <time>2016-03-30T10:31:38Z</time>
      </trkpt>
      <trkpt lat="43.45522" lon="5.77406">
        <ele>638.6</ele>
        <time>2016-03-30T10:31:50Z</time>
      </trkpt>
      <trkpt lat="43.45517" lon="5.77417">
        <ele>637.1</ele>
        <time>2016-03-30T10:32:01Z</time>
      </trkpt>
      <trkpt lat="43.45514" lon="5.77429">
        <ele>635.7</ele>
        <time>2016-03-30T10:32:10Z</time>
      </trkpt>
      <trkpt lat="43.45511" lon="5.77442">
        <ele>634.7</ele>
        <time>2016-03-30T10:32:18Z</time>
      </trkpt>
      <trkpt lat="43.45506" lon="5.77454">
        <ele>633.3</ele>
        <time>2016-03-30T10:32:29Z</time>
      </trkpt>
      <trkpt lat="43.45507" lon="5.77467">
        <ele>632.5</ele>
        <time>2016-03-30T10:32:36Z</time>
      </trkpt>
      <trkpt lat="43.45509" lon="5.7748">
        <ele>631.9</ele>
        <time>2016-03-30T10:32:42Z</time>
      </trkpt>
      <trkpt lat="43.45509" lon="5.77494">
        <ele>631.3</ele>
        <time>2016-03-30T10:32:48Z</time>
      </trkpt>
      <trkpt lat="43.45515" lon="5.77504">
        <ele>630.8</ele>
        <time>2016-03-30T10:32:56Z</time>
      </trkpt>
      <trkpt lat="43.45514" lon="5.77517">
        <ele>630.4</ele>
        <time>2016-03-30T10:33:08Z</time>
      </trkpt>
      <trkpt lat="43.45509" lon="5.77529">
        <ele>629.7</ele>
        <time>2016-03-30T10:33:20Z</time>
      </trkpt>
      <trkpt lat="43.45505" lon="5.7754">
        <ele>628.9</ele>
        <time>2016-03-30T10:33:29Z</time>
      </trkpt>
      <trkpt lat="43.45502" lon="5.77553">
        <ele>628.3</ele>
        <time>2016-03-30T10:33:38Z</time>
      </trkpt>
      <trkpt lat="43.45507" lon="5.77563">
        <ele>628</ele>
        <time>2016-03-30T10:33:45Z</time>
      </trkpt>
      <trkpt lat="43.45506" lon="5.77576">
        <ele>627.9</ele>
        <time>2016-03-30T10:33:52Z</time>
      </trkpt>
      <trkpt lat="43.45504" lon="5.77588">
        <ele>627.9</ele>
        <time>2016-03-30T10:34:02Z</time>
      </trkpt>
      <trkpt lat="43.45503" lon="5.77601">
        <ele>628.6</ele>
        <time>2016-03-30T10:34:13Z</time>
      </trkpt>
      <trkpt lat="43.45498" lon="5.77613">
        <ele>631.6</ele>
        <time>2016-03-30T10:35:10Z</time>
      </trkpt>
      <trkpt lat="43.45497" lon="5.77626">
        <ele>632.2</ele>
        <time>2016-03-30T10:35:20Z</time>
      </trkpt>
      <trkpt lat="43.45493" lon="5.77639">
        <ele>633.1</ele>
        <time>2016-03-30T10:35:30Z</time>
      </trkpt>
      <trkpt lat="43.45492" lon="5.77651">
        <ele>634.1</ele>
        <time>2016-03-30T10:35:39Z</time>
      </trkpt>
      <trkpt lat="43.4549" lon="5.77664">
        <ele>635</ele>
        <time>2016-03-30T10:35:48Z</time>
      </trkpt>
      <trkpt lat="43.45486" lon="5.77676">
        <ele>636.3</ele>
        <time>2016-03-30T10:35:59Z</time>
      </trkpt>
      <trkpt lat="43.45485" lon="5.77688">
        <ele>637.2</ele>
        <time>2016-03-30T10:36:09Z</time>
      </trkpt>
      <trkpt lat="43.45486" lon="5.77702">
        <ele>638.1</ele>
        <time>2016-03-30T10:36:18Z</time>
      </trkpt>
      <trkpt lat="43.45486" lon="5.77714">
        <ele>639.1</ele>
        <time>2016-03-30T10:36:28Z</time>
      </trkpt>
      <trkpt lat="43.45484" lon="5.77727">
        <ele>640.4</ele>
        <time>2016-03-30T10:36:39Z</time>
      </trkpt>
      <trkpt lat="43.45483" lon="5.7774">
        <ele>642</ele>
        <time>2016-03-30T10:37:03Z</time>
      </trkpt>
      <trkpt lat="43.45494" lon="5.77737">
        <ele>642.7</ele>
        <time>2016-03-30T10:37:24Z</time>
      </trkpt>
      <trkpt lat="43.455" lon="5.77727">
        <ele>642.5</ele>
        <time>2016-03-30T10:37:34Z</time>
      </trkpt>
      <trkpt lat="43.45505" lon="5.77716">
        <ele>642.5</ele>
        <time>2016-03-30T10:37:43Z</time>
      </trkpt>
      <trkpt lat="43.4551" lon="5.77705">
        <ele>642.6</ele>
        <time>2016-03-30T10:37:53Z</time>
      </trkpt>
      <trkpt lat="43.45506" lon="5.77693">
        <ele>642.5</ele>
        <time>2016-03-30T10:38:06Z</time>
      </trkpt>
      <trkpt lat="43.45511" lon="5.7768">
        <ele>642.2</ele>
        <time>2016-03-30T10:38:15Z</time>
      </trkpt>
      <trkpt lat="43.45516" lon="5.77669">
        <ele>641.6</ele>
        <time>2016-03-30T10:38:23Z</time>
      </trkpt>
      <trkpt lat="43.45514" lon="5.77657">
        <ele>640.8</ele>
        <time>2016-03-30T10:38:34Z</time>
      </trkpt>
      <trkpt lat="43.45515" lon="5.77643">
        <ele>640</ele>
        <time>2016-03-30T10:38:44Z</time>
      </trkpt>
      <trkpt lat="43.45518" lon="5.7763">
        <ele>639.4</ele>
        <time>2016-03-30T10:38:52Z</time>
      </trkpt>
      <trkpt lat="43.45522" lon="5.77618">
        <ele>638.8</ele>
        <time>2016-03-30T10:38:59Z</time>
      </trkpt>
      <trkpt lat="43.45527" lon="5.77606">
        <ele>638.3</ele>
        <time>2016-03-30T10:39:06Z</time>
      </trkpt>
      <trkpt lat="43.45529" lon="5.77594">
        <ele>637.9</ele>
        <time>2016-03-30T10:39:12Z</time>
      </trkpt>
      <trkpt lat="43.45536" lon="5.77584">
        <ele>637.2</ele>
        <time>2016-03-30T10:39:19Z</time>
      </trkpt>
      <trkpt lat="43.45543" lon="5.77575">
        <ele>636.7</ele>
        <time>2016-03-30T10:39:25Z</time>
      </trkpt>
      <trkpt lat="43.45552" lon="5.77569">
        <ele>635.9</ele>
        <time>2016-03-30T10:39:38Z</time>
      </trkpt>
      <trkpt lat="43.45561" lon="5.77563">
        <ele>635.1</ele>
        <time>2016-03-30T10:39:50Z</time>
      </trkpt>
      <trkpt lat="43.4557" lon="5.77562">
        <ele>633.3</ele>
        <time>2016-03-30T10:42:19Z</time>
      </trkpt>
      <trkpt lat="43.45577" lon="5.77552">
        <ele>633</ele>
        <time>2016-03-30T10:42:40Z</time>
      </trkpt>
      <trkpt lat="43.45585" lon="5.77549">
        <ele>632.5</ele>
        <time>2016-03-30T10:42:48Z</time>
      </trkpt>
      <trkpt lat="43.45594" lon="5.77544">
        <ele>631.9</ele>
        <time>2016-03-30T10:42:56Z</time>
      </trkpt>
      <trkpt lat="43.45603" lon="5.77543">
        <ele>631.4</ele>
        <time>2016-03-30T10:43:03Z</time>
      </trkpt>
      <trkpt lat="43.45613" lon="5.77539">
        <ele>630.4</ele>
        <time>2016-03-30T10:43:13Z</time>
      </trkpt>
      <trkpt lat="43.45622" lon="5.77535">
        <ele>629.7</ele>
        <time>2016-03-30T10:43:22Z</time>
      </trkpt>
      <trkpt lat="43.45632" lon="5.77532">
        <ele>629</ele>
        <time>2016-03-30T10:43:31Z</time>
      </trkpt>
      <trkpt lat="43.45641" lon="5.77529">
        <ele>628.1</ele>
        <time>2016-03-30T10:43:42Z</time>
      </trkpt>
      <trkpt lat="43.4565" lon="5.77528">
        <ele>627.5</ele>
        <time>2016-03-30T10:43:51Z</time>
      </trkpt>
      <trkpt lat="43.4566" lon="5.77531">
        <ele>626.9</ele>
        <time>2016-03-30T10:43:59Z</time>
      </trkpt>
      <trkpt lat="43.45668" lon="5.77537">
        <ele>626.4</ele>
        <time>2016-03-30T10:44:05Z</time>
      </trkpt>
      <trkpt lat="43.45676" lon="5.77543">
        <ele>625.7</ele>
        <time>2016-03-30T10:44:13Z</time>
      </trkpt>
      <trkpt lat="43.45685" lon="5.77548">
        <ele>625.1</ele>
        <time>2016-03-30T10:44:21Z</time>
      </trkpt>
      <trkpt lat="43.45694" lon="5.77555">
        <ele>624.4</ele>
        <time>2016-03-30T10:44:30Z</time>
      </trkpt>
      <trkpt lat="43.45701" lon="5.77565">
        <ele>623.1</ele>
        <time>2016-03-30T10:44:46Z</time>
      </trkpt>
      <trkpt lat="43.45706" lon="5.77577">
        <ele>622.4</ele>
        <time>2016-03-30T10:44:55Z</time>
      </trkpt>
      <trkpt lat="43.45712" lon="5.77589">
        <ele>621.7</ele>
        <time>2016-03-30T10:45:03Z</time>
      </trkpt>
      <trkpt lat="43.45717" lon="5.776">
        <ele>621.1</ele>
        <time>2016-03-30T10:45:10Z</time>
      </trkpt>
      <trkpt lat="43.45722" lon="5.77612">
        <ele>620.3</ele>
        <time>2016-03-30T10:45:19Z</time>
      </trkpt>
      <trkpt lat="43.45727" lon="5.77622">
        <ele>619.6</ele>
        <time>2016-03-30T10:45:26Z</time>
      </trkpt>
      <trkpt lat="43.45729" lon="5.77636">
        <ele>618.7</ele>
        <time>2016-03-30T10:45:35Z</time>
      </trkpt>
      <trkpt lat="43.45734" lon="5.77648">
        <ele>617.8</ele>
        <time>2016-03-30T10:45:44Z</time>
      </trkpt>
      <trkpt lat="43.45743" lon="5.77654">
        <ele>617.2</ele>
        <time>2016-03-30T10:45:52Z</time>
      </trkpt>
      <trkpt lat="43.45752" lon="5.77649">
        <ele>616.6</ele>
        <time>2016-03-30T10:46:03Z</time>
      </trkpt>
      <trkpt lat="43.4576" lon="5.77641">
        <ele>616</ele>
        <time>2016-03-30T10:46:10Z</time>
      </trkpt>
      <trkpt lat="43.45764" lon="5.77629">
        <ele>615.4</ele>
        <time>2016-03-30T10:46:20Z</time>
      </trkpt>
      <trkpt lat="43.45768" lon="5.77618">
        <ele>613.6</ele>
        <time>2016-03-30T10:47:27Z</time>
      </trkpt>
      <trkpt lat="43.4577" lon="5.77605">
        <ele>613.3</ele>
        <time>2016-03-30T10:47:36Z</time>
      </trkpt>
      <trkpt lat="43.45773" lon="5.77593">
        <ele>612.9</ele>
        <time>2016-03-30T10:47:43Z</time>
      </trkpt>
      <trkpt lat="43.45778" lon="5.77582">
        <ele>612.3</ele>
        <time>2016-03-30T10:47:50Z</time>
      </trkpt>
      <trkpt lat="43.45783" lon="5.77572">
        <ele>611.7</ele>
        <time>2016-03-30T10:47:57Z</time>
      </trkpt>
      <trkpt lat="43.45787" lon="5.7756">
        <ele>611.1</ele>
        <time>2016-03-30T10:48:05Z</time>
      </trkpt>
      <trkpt lat="43.45791" lon="5.77547">
        <ele>610.6</ele>
        <time>2016-03-30T10:48:13Z</time>
      </trkpt>
      <trkpt lat="43.45796" lon="5.77536">
        <ele>609.9</ele>
        <time>2016-03-30T10:48:20Z</time>
      </trkpt>
      <trkpt lat="43.45801" lon="5.77523">
        <ele>609.1</ele>
        <time>2016-03-30T10:48:28Z</time>
      </trkpt>
      <trkpt lat="43.45806" lon="5.77513">
        <ele>608.4</ele>
        <time>2016-03-30T10:48:35Z</time>
      </trkpt>
      <trkpt lat="43.45812" lon="5.77503">
        <ele>607.5</ele>
        <time>2016-03-30T10:48:43Z</time>
      </trkpt>
      <trkpt lat="43.4582" lon="5.77494">
        <ele>606.7</ele>
        <time>2016-03-30T10:48:51Z</time>
      </trkpt>
      <trkpt lat="43.45825" lon="5.77482">
        <ele>605.8</ele>
        <time>2016-03-30T10:48:59Z</time>
      </trkpt>
      <trkpt lat="43.4583" lon="5.77472">
        <ele>604.8</ele>
        <time>2016-03-30T10:49:08Z</time>
      </trkpt>
      <trkpt lat="43.45838" lon="5.77462">
        <ele>604.1</ele>
        <time>2016-03-30T10:49:16Z</time>
      </trkpt>
      <trkpt lat="43.45843" lon="5.77451">
        <ele>603.1</ele>
        <time>2016-03-30T10:49:25Z</time>
      </trkpt>
      <trkpt lat="43.4585" lon="5.7744">
        <ele>602.3</ele>
        <time>2016-03-30T10:49:32Z</time>
      </trkpt>
      <trkpt lat="43.45855" lon="5.77429">
        <ele>601.4</ele>
        <time>2016-03-30T10:49:39Z</time>
      </trkpt>
      <trkpt lat="43.4586" lon="5.77418">
        <ele>600.7</ele>
        <time>2016-03-30T10:49:47Z</time>
      </trkpt>
      <trkpt lat="43.45863" lon="5.77405">
        <ele>600</ele>
        <time>2016-03-30T10:49:55Z</time>
      </trkpt>
      <trkpt lat="43.45866" lon="5.77392">
        <ele>599.2</ele>
        <time>2016-03-30T10:50:04Z</time>
      </trkpt>
      <trkpt lat="43.45868" lon="5.7738">
        <ele>598.7</ele>
        <time>2016-03-30T10:50:11Z</time>
      </trkpt>
      <trkpt lat="43.45869" lon="5.77367">
        <ele>598</ele>
        <time>2016-03-30T10:50:18Z</time>
      </trkpt>
      <trkpt lat="43.45871" lon="5.77353">
        <ele>597.4</ele>
        <time>2016-03-30T10:50:27Z</time>
      </trkpt>
      <trkpt lat="43.45871" lon="5.77339">
        <ele>596.5</ele>
        <time>2016-03-30T10:50:34Z</time>
      </trkpt>
      <trkpt lat="43.45871" lon="5.77326">
        <ele>594.1</ele>
        <time>2016-03-30T10:54:46Z</time>
      </trkpt>
      <trkpt lat="43.45872" lon="5.77313">
        <ele>594.2</ele>
        <time>2016-03-30T10:54:55Z</time>
      </trkpt>
      <trkpt lat="43.45871" lon="5.773">
        <ele>594</ele>
        <time>2016-03-30T10:55:04Z</time>
      </trkpt>
      <trkpt lat="43.4587" lon="5.77286">
        <ele>593.8</ele>
        <time>2016-03-30T10:55:12Z</time>
      </trkpt>
      <trkpt lat="43.45867" lon="5.77273">
        <ele>593.3</ele>
        <time>2016-03-30T10:55:20Z</time>
      </trkpt>
      <trkpt lat="43.45866" lon="5.7726">
        <ele>592.8</ele>
        <time>2016-03-30T10:55:28Z</time>
      </trkpt>
      <trkpt lat="43.45865" lon="5.77248">
        <ele>592.3</ele>
        <time>2016-03-30T10:55:36Z</time>
      </trkpt>
      <trkpt lat="43.45865" lon="5.77235">
        <ele>591.8</ele>
        <time>2016-03-30T10:55:44Z</time>
      </trkpt>
      <trkpt lat="43.45866" lon="5.77221">
        <ele>591</ele>
        <time>2016-03-30T10:55:53Z</time>
      </trkpt>
      <trkpt lat="43.45865" lon="5.77208">
        <ele>590.6</ele>
        <time>2016-03-30T10:55:59Z</time>
      </trkpt>
      <trkpt lat="43.45868" lon="5.77195">
        <ele>589.7</ele>
        <time>2016-03-30T10:56:07Z</time>
      </trkpt>
      <trkpt lat="43.4587" lon="5.77182">
        <ele>589.1</ele>
        <time>2016-03-30T10:56:15Z</time>
      </trkpt>
      <trkpt lat="43.45873" lon="5.7717">
        <ele>588.5</ele>
        <time>2016-03-30T10:56:23Z</time>
      </trkpt>
      <trkpt lat="43.45879" lon="5.77159">
        <ele>587.6</ele>
        <time>2016-03-30T10:56:35Z</time>
      </trkpt>
      <trkpt lat="43.45886" lon="5.77152">
        <ele>586.9</ele>
        <time>2016-03-30T10:56:42Z</time>
      </trkpt>
      <trkpt lat="43.45891" lon="5.7714">
        <ele>586</ele>
        <time>2016-03-30T10:56:51Z</time>
      </trkpt>
      <trkpt lat="43.45895" lon="5.77127">
        <ele>584.9</ele>
        <time>2016-03-30T10:57:01Z</time>
      </trkpt>
      <trkpt lat="43.45903" lon="5.7712">
        <ele>584</ele>
        <time>2016-03-30T10:57:08Z</time>
      </trkpt>
      <trkpt lat="43.4591" lon="5.77128">
        <ele>582.9</ele>
        <time>2016-03-30T10:57:18Z</time>
      </trkpt>
      <trkpt lat="43.45915" lon="5.77141">
        <ele>581.7</ele>
        <time>2016-03-30T10:57:28Z</time>
      </trkpt>
      <trkpt lat="43.45919" lon="5.77153">
        <ele>580.8</ele>
        <time>2016-03-30T10:57:37Z</time>
      </trkpt>
      <trkpt lat="43.45923" lon="5.77164">
        <ele>579.1</ele>
        <time>2016-03-30T10:57:53Z</time>
      </trkpt>
      <trkpt lat="43.45928" lon="5.77176">
        <ele>578.6</ele>
        <time>2016-03-30T10:58:02Z</time>
      </trkpt>
      <trkpt lat="43.45934" lon="5.77188">
        <ele>576.8</ele>
        <time>2016-03-30T10:58:26Z</time>
      </trkpt>
      <trkpt lat="43.45935" lon="5.77201">
        <ele>576.4</ele>
        <time>2016-03-30T10:58:36Z</time>
      </trkpt>
      <trkpt lat="43.45939" lon="5.77214">
        <ele>576.1</ele>
        <time>2016-03-30T10:58:44Z</time>
      </trkpt>
      <trkpt lat="43.45944" lon="5.77226">
        <ele>575.6</ele>
        <time>2016-03-30T10:58:52Z</time>
      </trkpt>
      <trkpt lat="43.45948" lon="5.77237">
        <ele>574.9</ele>
        <time>2016-03-30T10:59:00Z</time>
      </trkpt>
      <trkpt lat="43.45952" lon="5.77248">
        <ele>574.5</ele>
        <time>2016-03-30T10:59:09Z</time>
      </trkpt>
      <trkpt lat="43.45958" lon="5.77258">
        <ele>574</ele>
        <time>2016-03-30T10:59:18Z</time>
      </trkpt>
      <trkpt lat="43.45962" lon="5.77269">
        <ele>573.3</ele>
        <time>2016-03-30T10:59:26Z</time>
      </trkpt>
      <trkpt lat="43.45967" lon="5.7728">
        <ele>572.5</ele>
        <time>2016-03-30T10:59:34Z</time>
      </trkpt>
      <trkpt lat="43.45966" lon="5.77293">
        <ele>571.3</ele>
        <time>2016-03-30T10:59:48Z</time>
      </trkpt>
      <trkpt lat="43.45975" lon="5.77299">
        <ele>570.5</ele>
        <time>2016-03-30T10:59:57Z</time>
      </trkpt>
      <trkpt lat="43.45973" lon="5.77326">
        <ele>568.6</ele>
        <time>2016-03-30T11:00:17Z</time>
      </trkpt>
      <trkpt lat="43.45972" lon="5.77339">
        <ele>567</ele>
        <time>2016-03-30T11:00:31Z</time>
      </trkpt>
      <trkpt lat="43.45975" lon="5.77354">
        <ele>566.5</ele>
        <time>2016-03-30T11:00:42Z</time>
      </trkpt>
      <trkpt lat="43.45994" lon="5.77372">
        <ele>565</ele>
        <time>2016-03-30T11:01:00Z</time>
      </trkpt>
      <trkpt lat="43.46003" lon="5.77382">
        <ele>565.2</ele>
        <time>2016-03-30T11:01:05Z</time>
      </trkpt>
      <trkpt lat="43.46007" lon="5.77394">
        <ele>564.6</ele>
        <time>2016-03-30T11:01:21Z</time>
      </trkpt>
      <trkpt lat="43.46015" lon="5.77401">
        <ele>564.2</ele>
        <time>2016-03-30T11:01:29Z</time>
      </trkpt>
      <trkpt lat="43.46025" lon="5.77406">
        <ele>563.9</ele>
        <time>2016-03-30T11:01:36Z</time>
      </trkpt>
      <trkpt lat="43.46032" lon="5.77414">
        <ele>563.3</ele>
        <time>2016-03-30T11:01:44Z</time>
      </trkpt>
      <trkpt lat="43.46041" lon="5.7742">
        <ele>561.8</ele>
        <time>2016-03-30T11:02:14Z</time>
      </trkpt>
      <trkpt lat="43.46048" lon="5.7743">
        <ele>561.5</ele>
        <time>2016-03-30T11:02:50Z</time>
      </trkpt>
      <trkpt lat="43.46055" lon="5.77439">
        <ele>561</ele>
        <time>2016-03-30T11:03:12Z</time>
      </trkpt>
      <trkpt lat="43.46061" lon="5.77449">
        <ele>560.6</ele>
        <time>2016-03-30T11:03:22Z</time>
      </trkpt>
      <trkpt lat="43.46069" lon="5.77453">
        <ele>560.2</ele>
        <time>2016-03-30T11:03:33Z</time>
      </trkpt>
      <trkpt lat="43.46075" lon="5.77464">
        <ele>559.7</ele>
        <time>2016-03-30T11:03:44Z</time>
      </trkpt>
      <trkpt lat="43.46079" lon="5.77477">
        <ele>559</ele>
        <time>2016-03-30T11:03:54Z</time>
      </trkpt>
      <trkpt lat="43.46087" lon="5.77485">
        <ele>558.3</ele>
        <time>2016-03-30T11:04:02Z</time>
      </trkpt>
      <trkpt lat="43.46098" lon="5.77486">
        <ele>557.4</ele>
        <time>2016-03-30T11:04:09Z</time>
      </trkpt>
      <trkpt lat="43.46108" lon="5.77485">
        <ele>556.9</ele>
        <time>2016-03-30T11:04:15Z</time>
      </trkpt>
      <trkpt lat="43.46117" lon="5.77484">
        <ele>556.5</ele>
        <time>2016-03-30T11:04:20Z</time>
      </trkpt>
      <trkpt lat="43.46127" lon="5.77485">
        <ele>555.8</ele>
        <time>2016-03-30T11:04:29Z</time>
      </trkpt>
      <trkpt lat="43.46136" lon="5.77486">
        <ele>554.9</ele>
        <time>2016-03-30T11:04:37Z</time>
      </trkpt>
      <trkpt lat="43.46143" lon="5.77494">
        <ele>554.3</ele>
        <time>2016-03-30T11:04:45Z</time>
      </trkpt>
      <trkpt lat="43.46147" lon="5.77505">
        <ele>553.9</ele>
        <time>2016-03-30T11:04:50Z</time>
      </trkpt>
      <trkpt lat="43.46149" lon="5.77518">
        <ele>552.5</ele>
        <time>2016-03-30T11:05:06Z</time>
      </trkpt>
      <trkpt lat="43.4615" lon="5.7753">
        <ele>551.5</ele>
        <time>2016-03-30T11:05:16Z</time>
      </trkpt>
      <trkpt lat="43.46153" lon="5.77542">
        <ele>550.8</ele>
        <time>2016-03-30T11:05:24Z</time>
      </trkpt>
      <trkpt lat="43.46156" lon="5.77555">
        <ele>549.9</ele>
        <time>2016-03-30T11:05:33Z</time>
      </trkpt>
      <trkpt lat="43.46155" lon="5.77569">
        <ele>549.1</ele>
        <time>2016-03-30T11:05:42Z</time>
      </trkpt>
      <trkpt lat="43.46152" lon="5.77581">
        <ele>548.3</ele>
        <time>2016-03-30T11:05:52Z</time>
      </trkpt>
      <trkpt lat="43.46148" lon="5.77594">
        <ele>547.5</ele>
        <time>2016-03-30T11:06:00Z</time>
      </trkpt>
      <trkpt lat="43.46146" lon="5.77607">
        <ele>546.6</ele>
        <time>2016-03-30T11:06:08Z</time>
      </trkpt>
      <trkpt lat="43.46144" lon="5.7762">
        <ele>545.4</ele>
        <time>2016-03-30T11:06:17Z</time>
      </trkpt>
      <trkpt lat="43.46151" lon="5.77629">
        <ele>544.1</ele>
        <time>2016-03-30T11:06:31Z</time>
      </trkpt>
      <trkpt lat="43.46155" lon="5.77616">
        <ele>542.4</ele>
        <time>2016-03-30T11:07:09Z</time>
      </trkpt>
      <trkpt lat="43.46158" lon="5.77605">
        <ele>542</ele>
        <time>2016-03-30T11:07:21Z</time>
      </trkpt>
      <trkpt lat="43.46162" lon="5.77593">
        <ele>541.7</ele>
        <time>2016-03-30T11:07:28Z</time>
      </trkpt>
      <trkpt lat="43.46164" lon="5.7758">
        <ele>541.3</ele>
        <time>2016-03-30T11:07:45Z</time>
      </trkpt>
      <trkpt lat="43.46171" lon="5.7757">
        <ele>541.2</ele>
        <time>2016-03-30T11:07:53Z</time>
      </trkpt>
      <trkpt lat="43.46177" lon="5.7756">
        <ele>541.1</ele>
        <time>2016-03-30T11:08:01Z</time>
      </trkpt>
      <trkpt lat="43.46182" lon="5.77548">
        <ele>541.1</ele>
        <time>2016-03-30T11:08:10Z</time>
      </trkpt>
      <trkpt lat="43.46186" lon="5.77536">
        <ele>540.9</ele>
        <time>2016-03-30T11:08:17Z</time>
      </trkpt>
      <trkpt lat="43.46184" lon="5.77524">
        <ele>540.6</ele>
        <time>2016-03-30T11:08:24Z</time>
      </trkpt>
      <trkpt lat="43.4618" lon="5.77512">
        <ele>540.2</ele>
        <time>2016-03-30T11:08:31Z</time>
      </trkpt>
      <trkpt lat="43.46176" lon="5.775">
        <ele>539.6</ele>
        <time>2016-03-30T11:08:39Z</time>
      </trkpt>
      <trkpt lat="43.46173" lon="5.77487">
        <ele>539</ele>
        <time>2016-03-30T11:08:47Z</time>
      </trkpt>
      <trkpt lat="43.46171" lon="5.77474">
        <ele>538.3</ele>
        <time>2016-03-30T11:08:55Z</time>
      </trkpt>
      <trkpt lat="43.46169" lon="5.77461">
        <ele>537.6</ele>
        <time>2016-03-30T11:09:03Z</time>
      </trkpt>
      <trkpt lat="43.46167" lon="5.77449">
        <ele>536.8</ele>
        <time>2016-03-30T11:09:11Z</time>
      </trkpt>
      <trkpt lat="43.46165" lon="5.77435">
        <ele>536</ele>
        <time>2016-03-30T11:09:26Z</time>
      </trkpt>
      <trkpt lat="43.4616" lon="5.77423">
        <ele>535.2</ele>
        <time>2016-03-30T11:09:35Z</time>
      </trkpt>
      <trkpt lat="43.46155" lon="5.77413">
        <ele>534.6</ele>
        <time>2016-03-30T11:09:43Z</time>
      </trkpt>
      <trkpt lat="43.46148" lon="5.77402">
        <ele>534.1</ele>
        <time>2016-03-30T11:09:51Z</time>
      </trkpt>
      <trkpt lat="43.46143" lon="5.7739">
        <ele>533.5</ele>
        <time>2016-03-30T11:09:58Z</time>
      </trkpt>
      <trkpt lat="43.46138" lon="5.7738">
        <ele>532.9</ele>
        <time>2016-03-30T11:10:05Z</time>
      </trkpt>
      <trkpt lat="43.46134" lon="5.77368">
        <ele>532.1</ele>
        <time>2016-03-30T11:10:15Z</time>
      </trkpt>
      <trkpt lat="43.4613" lon="5.77356">
        <ele>530.6</ele>
        <time>2016-03-30T11:10:33Z</time>
      </trkpt>
      <trkpt lat="43.46123" lon="5.77347">
        <ele>530.1</ele>
        <time>2016-03-30T11:10:46Z</time>
      </trkpt>
      <trkpt lat="43.46117" lon="5.77336">
        <ele>529.6</ele>
        <time>2016-03-30T11:10:54Z</time>
      </trkpt>
      <trkpt lat="43.46111" lon="5.77325">
        <ele>529.2</ele>
        <time>2016-03-30T11:11:02Z</time>
      </trkpt>
      <trkpt lat="43.46105" lon="5.77314">
        <ele>528.2</ele>
        <time>2016-03-30T11:11:19Z</time>
      </trkpt>
      <trkpt lat="43.46101" lon="5.77302">
        <ele>527.7</ele>
        <time>2016-03-30T11:11:28Z</time>
      </trkpt>
      <trkpt lat="43.46098" lon="5.7729">
        <ele>527.2</ele>
        <time>2016-03-30T11:11:36Z</time>
      </trkpt>
      <trkpt lat="43.46097" lon="5.77277">
        <ele>526.6</ele>
        <time>2016-03-30T11:11:44Z</time>
      </trkpt>
      <trkpt lat="43.461" lon="5.77265">
        <ele>525.9</ele>
        <time>2016-03-30T11:11:51Z</time>
      </trkpt>
      <trkpt lat="43.46102" lon="5.77251">
        <ele>525.1</ele>
        <time>2016-03-30T11:11:59Z</time>
      </trkpt>
      <trkpt lat="43.46102" lon="5.77237">
        <ele>524.4</ele>
        <time>2016-03-30T11:12:07Z</time>
      </trkpt>
      <trkpt lat="43.46102" lon="5.77224">
        <ele>523.6</ele>
        <time>2016-03-30T11:12:15Z</time>
      </trkpt>
      <trkpt lat="43.46104" lon="5.77211">
        <ele>523</ele>
        <time>2016-03-30T11:12:22Z</time>
      </trkpt>
      <trkpt lat="43.46104" lon="5.77197">
        <ele>522.3</ele>
        <time>2016-03-30T11:12:30Z</time>
      </trkpt>
      <trkpt lat="43.46104" lon="5.77184">
        <ele>521.5</ele>
        <time>2016-03-30T11:12:38Z</time>
      </trkpt>
      <trkpt lat="43.46102" lon="5.77171">
        <ele>521</ele>
        <time>2016-03-30T11:12:45Z</time>
      </trkpt>
      <trkpt lat="43.46098" lon="5.77159">
        <ele>520.5</ele>
        <time>2016-03-30T11:12:53Z</time>
      </trkpt>
      <trkpt lat="43.46095" lon="5.77146">
        <ele>520.1</ele>
        <time>2016-03-30T11:13:01Z</time>
      </trkpt>
      <trkpt lat="43.46093" lon="5.77132">
        <ele>518.7</ele>
        <time>2016-03-30T11:13:35Z</time>
      </trkpt>
      <trkpt lat="43.46093" lon="5.77146">
        <ele>518.7</ele>
        <time>2016-03-30T11:14:22Z</time>
      </trkpt>
      <trkpt lat="43.4609" lon="5.77133">
        <ele>518.6</ele>
        <time>2016-03-30T11:14:28Z</time>
      </trkpt>
      <trkpt lat="43.46097" lon="5.77125">
        <ele>517.9</ele>
        <time>2016-03-30T11:15:19Z</time>
      </trkpt>
      <trkpt lat="43.46106" lon="5.7713">
        <ele>517.6</ele>
        <time>2016-03-30T11:15:25Z</time>
      </trkpt>
      <trkpt lat="43.46115" lon="5.77133">
        <ele>517.1</ele>
        <time>2016-03-30T11:15:31Z</time>
      </trkpt>
      <trkpt lat="43.46124" lon="5.77139">
        <ele>516.2</ele>
        <time>2016-03-30T11:15:38Z</time>
      </trkpt>
      <trkpt lat="43.46132" lon="5.77146">
        <ele>515.5</ele>
        <time>2016-03-30T11:15:44Z</time>
      </trkpt>
      <trkpt lat="43.4614" lon="5.77152">
        <ele>514</ele>
        <time>2016-03-30T11:15:52Z</time>
      </trkpt>
      <trkpt lat="43.46148" lon="5.7716">
        <ele>512.6</ele>
        <time>2016-03-30T11:15:59Z</time>
      </trkpt>
      <trkpt lat="43.46158" lon="5.77161">
        <ele>510.1</ele>
        <time>2016-03-30T11:16:09Z</time>
      </trkpt>
      <trkpt lat="43.4616" lon="5.77149">
        <ele>508</ele>
        <time>2016-03-30T11:16:19Z</time>
      </trkpt>
      <trkpt lat="43.46157" lon="5.77137">
        <ele>506.2</ele>
        <time>2016-03-30T11:16:28Z</time>
      </trkpt>
      <trkpt lat="43.46153" lon="5.77124">
        <ele>504.5</ele>
        <time>2016-03-30T11:16:36Z</time>
      </trkpt>
      <trkpt lat="43.46149" lon="5.77111">
        <ele>502.8</ele>
        <time>2016-03-30T11:16:45Z</time>
      </trkpt>
      <trkpt lat="43.46148" lon="5.77098">
        <ele>501.3</ele>
        <time>2016-03-30T11:16:53Z</time>
      </trkpt>
      <trkpt lat="43.46146" lon="5.77086">
        <ele>499.7</ele>
        <time>2016-03-30T11:17:01Z</time>
      </trkpt>
      <trkpt lat="43.46147" lon="5.77073">
        <ele>498.2</ele>
        <time>2016-03-30T11:17:09Z</time>
      </trkpt>
      <trkpt lat="43.46145" lon="5.7706">
        <ele>496.7</ele>
        <time>2016-03-30T11:17:17Z</time>
      </trkpt>
      <trkpt lat="43.46145" lon="5.77048">
        <ele>495</ele>
        <time>2016-03-30T11:17:25Z</time>
      </trkpt>
      <trkpt lat="43.46145" lon="5.77034">
        <ele>493.4</ele>
        <time>2016-03-30T11:17:33Z</time>
      </trkpt>
      <trkpt lat="43.46145" lon="5.7702">
        <ele>491.7</ele>
        <time>2016-03-30T11:17:41Z</time>
      </trkpt>
      <trkpt lat="43.46143" lon="5.77006">
        <ele>490</ele>
        <time>2016-03-30T11:17:49Z</time>
      </trkpt>
      <trkpt lat="43.46139" lon="5.76994">
        <ele>488.4</ele>
        <time>2016-03-30T11:17:57Z</time>
      </trkpt>
      <trkpt lat="43.46133" lon="5.76984">
        <ele>486.5</ele>
        <time>2016-03-30T11:18:06Z</time>
      </trkpt>
      <trkpt lat="43.46129" lon="5.76972">
        <ele>484.6</ele>
        <time>2016-03-30T11:18:15Z</time>
      </trkpt>
      <trkpt lat="43.46125" lon="5.7696">
        <ele>482.5</ele>
        <time>2016-03-30T11:18:24Z</time>
      </trkpt>
      <trkpt lat="43.46121" lon="5.76949">
        <ele>481.1</ele>
        <time>2016-03-30T11:18:30Z</time>
      </trkpt>
      <trkpt lat="43.46117" lon="5.76936">
        <ele>479.2</ele>
        <time>2016-03-30T11:18:38Z</time>
      </trkpt>
      <trkpt lat="43.46112" lon="5.76925">
        <ele>477.3</ele>
        <time>2016-03-30T11:18:46Z</time>
      </trkpt>
      <trkpt lat="43.46107" lon="5.76915">
        <ele>475.6</ele>
        <time>2016-03-30T11:18:53Z</time>
      </trkpt>
      <trkpt lat="43.461" lon="5.76905">
        <ele>473.7</ele>
        <time>2016-03-30T11:19:02Z</time>
      </trkpt>
      <trkpt lat="43.46092" lon="5.76898">
        <ele>471.9</ele>
        <time>2016-03-30T11:19:11Z</time>
      </trkpt>
      <trkpt lat="43.46083" lon="5.7689">
        <ele>470.6</ele>
        <time>2016-03-30T11:19:19Z</time>
      </trkpt>
      <trkpt lat="43.46077" lon="5.7688">
        <ele>469.6</ele>
        <time>2016-03-30T11:19:26Z</time>
      </trkpt>
      <trkpt lat="43.46069" lon="5.76872">
        <ele>468.8</ele>
        <time>2016-03-30T11:19:33Z</time>
      </trkpt>
      <trkpt lat="43.4606" lon="5.76867">
        <ele>468.1</ele>
        <time>2016-03-30T11:19:42Z</time>
      </trkpt>
      <trkpt lat="43.46052" lon="5.7686">
        <ele>467.6</ele>
        <time>2016-03-30T11:19:50Z</time>
      </trkpt>
      <trkpt lat="43.46044" lon="5.76851">
        <ele>467.4</ele>
        <time>2016-03-30T11:19:58Z</time>
      </trkpt>
      <trkpt lat="43.46037" lon="5.76842">
        <ele>467.1</ele>
        <time>2016-03-30T11:20:05Z</time>
      </trkpt>
      <trkpt lat="43.4603" lon="5.76833">
        <ele>466.1</ele>
        <time>2016-03-30T11:20:27Z</time>
      </trkpt>
      <trkpt lat="43.46023" lon="5.76824">
        <ele>465.6</ele>
        <time>2016-03-30T11:20:34Z</time>
      </trkpt>
      <trkpt lat="43.46014" lon="5.76821">
        <ele>463.1</ele>
        <time>2016-03-30T11:21:17Z</time>
      </trkpt>
      <trkpt lat="43.46005" lon="5.76817">
        <ele>462.4</ele>
        <time>2016-03-30T11:21:26Z</time>
      </trkpt>
      <trkpt lat="43.45997" lon="5.7681">
        <ele>461.8</ele>
        <time>2016-03-30T11:21:33Z</time>
      </trkpt>
      <trkpt lat="43.45989" lon="5.76802">
        <ele>461.4</ele>
        <time>2016-03-30T11:21:39Z</time>
      </trkpt>
      <trkpt lat="43.45982" lon="5.76792">
        <ele>460.9</ele>
        <time>2016-03-30T11:21:46Z</time>
      </trkpt>
      <trkpt lat="43.45975" lon="5.76782">
        <ele>460.2</ele>
        <time>2016-03-30T11:21:54Z</time>
      </trkpt>
      <trkpt lat="43.45969" lon="5.76772">
        <ele>459.5</ele>
        <time>2016-03-30T11:22:01Z</time>
      </trkpt>
      <trkpt lat="43.45968" lon="5.7676">
        <ele>458.1</ele>
        <time>2016-03-30T11:22:12Z</time>
      </trkpt>
      <trkpt lat="43.45973" lon="5.76748">
        <ele>455.3</ele>
        <time>2016-03-30T11:22:50Z</time>
      </trkpt>
      <trkpt lat="43.45982" lon="5.76743">
        <ele>454.5</ele>
        <time>2016-03-30T11:22:57Z</time>
      </trkpt>
      <trkpt lat="43.45991" lon="5.76743">
        <ele>453</ele>
        <time>2016-03-30T11:23:07Z</time>
      </trkpt>
      <trkpt lat="43.46001" lon="5.76747">
        <ele>451</ele>
        <time>2016-03-30T11:23:17Z</time>
      </trkpt>
      <trkpt lat="43.4601" lon="5.76751">
        <ele>449.6</ele>
        <time>2016-03-30T11:23:23Z</time>
      </trkpt>
      <trkpt lat="43.46018" lon="5.76755">
        <ele>448</ele>
        <time>2016-03-30T11:23:30Z</time>
      </trkpt>
      <trkpt lat="43.46027" lon="5.76757">
        <ele>445.7</ele>
        <time>2016-03-30T11:23:40Z</time>
      </trkpt>
      <trkpt lat="43.46036" lon="5.76754">
        <ele>444.2</ele>
        <time>2016-03-30T11:23:46Z</time>
      </trkpt>
      <trkpt lat="43.46044" lon="5.76746">
        <ele>442.3</ele>
        <time>2016-03-30T11:23:54Z</time>
      </trkpt>
      <trkpt lat="43.46051" lon="5.76737">
        <ele>440.5</ele>
        <time>2016-03-30T11:24:03Z</time>
      </trkpt>
      <trkpt lat="43.46057" lon="5.76727">
        <ele>439.1</ele>
        <time>2016-03-30T11:24:10Z</time>
      </trkpt>
      <trkpt lat="43.46064" lon="5.76719">
        <ele>438.2</ele>
        <time>2016-03-30T11:24:15Z</time>
      </trkpt>
      <trkpt lat="43.46072" lon="5.76709">
        <ele>436.6</ele>
        <time>2016-03-30T11:24:25Z</time>
      </trkpt>
      <trkpt lat="43.46075" lon="5.76696">
        <ele>435.1</ele>
        <time>2016-03-30T11:24:37Z</time>
      </trkpt>
      <trkpt lat="43.46083" lon="5.7669">
        <ele>434.2</ele>
        <time>2016-03-30T11:24:44Z</time>
      </trkpt>
      <trkpt lat="43.4609" lon="5.76681">
        <ele>433.1</ele>
        <time>2016-03-30T11:24:52Z</time>
      </trkpt>
      <trkpt lat="43.46098" lon="5.76673">
        <ele>432</ele>
        <time>2016-03-30T11:25:00Z</time>
      </trkpt>
      <trkpt lat="43.461" lon="5.7666">
        <ele>431</ele>
        <time>2016-03-30T11:25:09Z</time>
      </trkpt>
      <trkpt lat="43.46093" lon="5.76652">
        <ele>428.7</ele>
        <time>2016-03-30T11:26:00Z</time>
      </trkpt>
      <trkpt lat="43.46084" lon="5.7665">
        <ele>428.4</ele>
        <time>2016-03-30T11:26:08Z</time>
      </trkpt>
      <trkpt lat="43.46074" lon="5.76649">
        <ele>427.9</ele>
        <time>2016-03-30T11:26:15Z</time>
      </trkpt>
      <trkpt lat="43.46064" lon="5.7665">
        <ele>427</ele>
        <time>2016-03-30T11:26:23Z</time>
      </trkpt>
      <trkpt lat="43.46055" lon="5.76653">
        <ele>426</ele>
        <time>2016-03-30T11:26:33Z</time>
      </trkpt>
      <trkpt lat="43.46046" lon="5.76653">
        <ele>425.5</ele>
        <time>2016-03-30T11:26:42Z</time>
      </trkpt>
      <trkpt lat="43.46037" lon="5.76649">
        <ele>425.2</ele>
        <time>2016-03-30T11:26:50Z</time>
      </trkpt>
      <trkpt lat="43.46027" lon="5.76644">
        <ele>425</ele>
        <time>2016-03-30T11:26:58Z</time>
      </trkpt>
      <trkpt lat="43.46018" lon="5.76643">
        <ele>424.9</ele>
        <time>2016-03-30T11:27:05Z</time>
      </trkpt>
      <trkpt lat="43.46008" lon="5.76644">
        <ele>424.8</ele>
        <time>2016-03-30T11:27:13Z</time>
      </trkpt>
      <trkpt lat="43.45998" lon="5.76645">
        <ele>424.7</ele>
        <time>2016-03-30T11:27:21Z</time>
      </trkpt>
      <trkpt lat="43.45988" lon="5.76644">
        <ele>424.7</ele>
        <time>2016-03-30T11:27:29Z</time>
      </trkpt>
      <trkpt lat="43.45978" lon="5.76644">
        <ele>424.6</ele>
        <time>2016-03-30T11:27:37Z</time>
      </trkpt>
      <trkpt lat="43.45969" lon="5.76645">
        <ele>424.6</ele>
        <time>2016-03-30T11:27:45Z</time>
      </trkpt>
      <trkpt lat="43.45959" lon="5.76645">
        <ele>424.6</ele>
        <time>2016-03-30T11:27:54Z</time>
      </trkpt>
      <trkpt lat="43.4595" lon="5.76646">
        <ele>424.6</ele>
        <time>2016-03-30T11:28:04Z</time>
      </trkpt>
      <trkpt lat="43.45941" lon="5.76651">
        <ele>424.8</ele>
        <time>2016-03-30T11:28:10Z</time>
      </trkpt>
      <trkpt lat="43.45932" lon="5.76656">
        <ele>425.1</ele>
        <time>2016-03-30T11:28:19Z</time>
      </trkpt>
      <trkpt lat="43.45923" lon="5.76661">
        <ele>425.6</ele>
        <time>2016-03-30T11:28:27Z</time>
      </trkpt>
      <trkpt lat="43.45914" lon="5.76664">
        <ele>426.4</ele>
        <time>2016-03-30T11:28:35Z</time>
      </trkpt>
      <trkpt lat="43.45905" lon="5.76668">
        <ele>427.2</ele>
        <time>2016-03-30T11:28:43Z</time>
      </trkpt>
      <trkpt lat="43.45896" lon="5.76673">
        <ele>427.5</ele>
        <time>2016-03-30T11:28:49Z</time>
      </trkpt>
      <trkpt lat="43.45887" lon="5.76677">
        <ele>427.8</ele>
        <time>2016-03-30T11:28:56Z</time>
      </trkpt>
      <trkpt lat="43.45878" lon="5.76683">
        <ele>428</ele>
        <time>2016-03-30T11:29:04Z</time>
      </trkpt>
      <trkpt lat="43.45868" lon="5.76688">
        <ele>428</ele>
        <time>2016-03-30T11:29:11Z</time>
      </trkpt>
      <trkpt lat="43.45861" lon="5.76696">
        <ele>428.2</ele>
        <time>2016-03-30T11:29:19Z</time>
      </trkpt>
      <trkpt lat="43.45855" lon="5.76705">
        <ele>428.3</ele>
        <time>2016-03-30T11:29:29Z</time>
      </trkpt>
      <trkpt lat="43.45848" lon="5.76714">
        <ele>428.5</ele>
        <time>2016-03-30T11:29:36Z</time>
      </trkpt>
      <trkpt lat="43.45843" lon="5.76724">
        <ele>428.6</ele>
        <time>2016-03-30T11:29:43Z</time>
      </trkpt>
      <trkpt lat="43.45836" lon="5.76734">
        <ele>428.8</ele>
        <time>2016-03-30T11:29:52Z</time>
      </trkpt>
      <trkpt lat="43.4583" lon="5.76744">
        <ele>429.1</ele>
        <time>2016-03-30T11:30:00Z</time>
      </trkpt>
      <trkpt lat="43.45825" lon="5.76755">
        <ele>429.2</ele>
        <time>2016-03-30T11:30:10Z</time>
      </trkpt>
      <trkpt lat="43.45819" lon="5.76765">
        <ele>429.1</ele>
        <time>2016-03-30T11:30:41Z</time>
      </trkpt>
      <trkpt lat="43.4581" lon="5.76767">
        <ele>428.9</ele>
        <time>2016-03-30T11:30:59Z</time>
      </trkpt>
      <trkpt lat="43.45799" lon="5.76762">
        <ele>427</ele>
        <time>2016-03-30T11:31:57Z</time>
      </trkpt>
      <trkpt lat="43.45795" lon="5.76748">
        <ele>426.9</ele>
        <time>2016-03-30T11:32:42Z</time>
      </trkpt>
      <trkpt lat="43.45794" lon="5.76735">
        <ele>427.1</ele>
        <time>2016-03-30T11:32:51Z</time>
      </trkpt>
      <trkpt lat="43.45797" lon="5.76722">
        <ele>427.3</ele>
        <time>2016-03-30T11:32:59Z</time>
      </trkpt>
      <trkpt lat="43.45802" lon="5.76712">
        <ele>427.9</ele>
        <time>2016-03-30T11:33:20Z</time>
      </trkpt>
      <trkpt lat="43.45802" lon="5.76698">
        <ele>428.1</ele>
        <time>2016-03-30T11:33:28Z</time>
      </trkpt>
      <trkpt lat="43.45801" lon="5.76685">
        <ele>428.4</ele>
        <time>2016-03-30T11:33:36Z</time>
      </trkpt>
      <trkpt lat="43.45801" lon="5.76672">
        <ele>428.6</ele>
        <time>2016-03-30T11:33:44Z</time>
      </trkpt>
      <trkpt lat="43.458" lon="5.76659">
        <ele>428.8</ele>
        <time>2016-03-30T11:33:52Z</time>
      </trkpt>
      <trkpt lat="43.45797" lon="5.76647">
        <ele>429.4</ele>
        <time>2016-03-30T11:34:06Z</time>
      </trkpt>
      <trkpt lat="43.45797" lon="5.76633">
        <ele>431</ele>
        <time>2016-03-30T11:36:25Z</time>
      </trkpt>
      <trkpt lat="43.45796" lon="5.7662">
        <ele>430.9</ele>
        <time>2016-03-30T11:36:33Z</time>
      </trkpt>
      <trkpt lat="43.45794" lon="5.76607">
        <ele>430.9</ele>
        <time>2016-03-30T11:36:41Z</time>
      </trkpt>
      <trkpt lat="43.45792" lon="5.76594">
        <ele>430.9</ele>
        <time>2016-03-30T11:36:49Z</time>
      </trkpt>
      <trkpt lat="43.4579" lon="5.76582">
        <ele>430.8</ele>
        <time>2016-03-30T11:36:57Z</time>
      </trkpt>
      <trkpt lat="43.45787" lon="5.76569">
        <ele>430.9</ele>
        <time>2016-03-30T11:37:06Z</time>
      </trkpt>
      <trkpt lat="43.45786" lon="5.76556">
        <ele>430.9</ele>
        <time>2016-03-30T11:37:14Z</time>
      </trkpt>
      <trkpt lat="43.45786" lon="5.76542">
        <ele>431</ele>
        <time>2016-03-30T11:37:22Z</time>
      </trkpt>
      <trkpt lat="43.45784" lon="5.76529">
        <ele>431.1</ele>
        <time>2016-03-30T11:37:29Z</time>
      </trkpt>
      <trkpt lat="43.4578" lon="5.76517">
        <ele>431.2</ele>
        <time>2016-03-30T11:37:36Z</time>
      </trkpt>
      <trkpt lat="43.45776" lon="5.76505">
        <ele>431.2</ele>
        <time>2016-03-30T11:37:44Z</time>
      </trkpt>
      <trkpt lat="43.45771" lon="5.76494">
        <ele>431.2</ele>
        <time>2016-03-30T11:37:51Z</time>
      </trkpt>
      <trkpt lat="43.45765" lon="5.76483">
        <ele>431.2</ele>
        <time>2016-03-30T11:37:58Z</time>
      </trkpt>
      <trkpt lat="43.4576" lon="5.76472">
        <ele>431.2</ele>
        <time>2016-03-30T11:38:06Z</time>
      </trkpt>
      <trkpt lat="43.45755" lon="5.76462">
        <ele>431.1</ele>
        <time>2016-03-30T11:38:14Z</time>
      </trkpt>
      <trkpt lat="43.45748" lon="5.76453">
        <ele>431.1</ele>
        <time>2016-03-30T11:38:22Z</time>
      </trkpt>
      <trkpt lat="43.45743" lon="5.76443">
        <ele>431.1</ele>
        <time>2016-03-30T11:38:30Z</time>
      </trkpt>
      <trkpt lat="43.45752" lon="5.76431">
        <ele>431</ele>
        <time>2016-03-30T11:38:45Z</time>
      </trkpt>
      <trkpt lat="43.45759" lon="5.76422">
        <ele>431</ele>
        <time>2016-03-30T11:38:53Z</time>
      </trkpt>
      <trkpt lat="43.45769" lon="5.76425">
        <ele>430.6</ele>
        <time>2016-03-30T11:39:08Z</time>
      </trkpt>
      <trkpt lat="43.45777" lon="5.7642">
        <ele>430.4</ele>
        <time>2016-03-30T11:39:14Z</time>
      </trkpt>
      <trkpt lat="43.45786" lon="5.76416">
        <ele>430.2</ele>
        <time>2016-03-30T11:39:20Z</time>
      </trkpt>
      <trkpt lat="43.45795" lon="5.7641">
        <ele>429.6</ele>
        <time>2016-03-30T11:39:27Z</time>
      </trkpt>
      <trkpt lat="43.45805" lon="5.76406">
        <ele>429.2</ele>
        <time>2016-03-30T11:39:33Z</time>
      </trkpt>
      <trkpt lat="43.45814" lon="5.764">
        <ele>428.6</ele>
        <time>2016-03-30T11:39:40Z</time>
      </trkpt>
      <trkpt lat="43.45823" lon="5.76395">
        <ele>427.9</ele>
        <time>2016-03-30T11:39:46Z</time>
      </trkpt>
      <trkpt lat="43.45833" lon="5.76391">
        <ele>427</ele>
        <time>2016-03-30T11:39:53Z</time>
      </trkpt>
      <trkpt lat="43.45841" lon="5.76385">
        <ele>426.1</ele>
        <time>2016-03-30T11:40:00Z</time>
      </trkpt>
      <trkpt lat="43.45846" lon="5.76374">
        <ele>425.3</ele>
        <time>2016-03-30T11:40:07Z</time>
      </trkpt>
      <trkpt lat="43.45849" lon="5.76361">
        <ele>424.7</ele>
        <time>2016-03-30T11:40:16Z</time>
      </trkpt>
      <trkpt lat="43.45849" lon="5.76347">
        <ele>424.3</ele>
        <time>2016-03-30T11:40:24Z</time>
      </trkpt>
      <trkpt lat="43.45847" lon="5.76335">
        <ele>424.1</ele>
        <time>2016-03-30T11:40:32Z</time>
      </trkpt>
      <trkpt lat="43.45841" lon="5.76324">
        <ele>424</ele>
        <time>2016-03-30T11:40:39Z</time>
      </trkpt>
      <trkpt lat="43.45836" lon="5.76314">
        <ele>424.1</ele>
        <time>2016-03-30T11:40:48Z</time>
      </trkpt>
      <trkpt lat="43.45833" lon="5.76301">
        <ele>424.8</ele>
        <time>2016-03-30T11:40:57Z</time>
      </trkpt>
      <trkpt lat="43.45831" lon="5.76288">
        <ele>425.4</ele>
        <time>2016-03-30T11:41:07Z</time>
      </trkpt>
      <trkpt lat="43.45828" lon="5.76275">
        <ele>426.1</ele>
        <time>2016-03-30T11:41:16Z</time>
      </trkpt>
      <trkpt lat="43.45827" lon="5.76262">
        <ele>427</ele>
        <time>2016-03-30T11:41:25Z</time>
      </trkpt>
      <trkpt lat="43.45824" lon="5.7625">
        <ele>427.8</ele>
        <time>2016-03-30T11:41:33Z</time>
      </trkpt>
      <trkpt lat="43.45823" lon="5.76237">
        <ele>428.8</ele>
        <time>2016-03-30T11:41:41Z</time>
      </trkpt>
      <trkpt lat="43.45819" lon="5.76224">
        <ele>430</ele>
        <time>2016-03-30T11:41:52Z</time>
      </trkpt>
      <trkpt lat="43.45814" lon="5.76213">
        <ele>430.7</ele>
        <time>2016-03-30T11:42:00Z</time>
      </trkpt>
      <trkpt lat="43.45811" lon="5.762">
        <ele>431.3</ele>
        <time>2016-03-30T11:42:08Z</time>
      </trkpt>
      <trkpt lat="43.45809" lon="5.76188">
        <ele>431.6</ele>
        <time>2016-03-30T11:42:16Z</time>
      </trkpt>
      <trkpt lat="43.45805" lon="5.76175">
        <ele>431.8</ele>
        <time>2016-03-30T11:42:25Z</time>
      </trkpt>
      <trkpt lat="43.458" lon="5.76165">
        <ele>431.8</ele>
        <time>2016-03-30T11:42:32Z</time>
      </trkpt>
      <trkpt lat="43.45794" lon="5.76153">
        <ele>431.5</ele>
        <time>2016-03-30T11:42:39Z</time>
      </trkpt>
      <trkpt lat="43.45786" lon="5.76144">
        <ele>430.8</ele>
        <time>2016-03-30T11:42:48Z</time>
      </trkpt>
      <trkpt lat="43.4578" lon="5.76134">
        <ele>430.2</ele>
        <time>2016-03-30T11:42:56Z</time>
      </trkpt>
      <trkpt lat="43.45773" lon="5.76124">
        <ele>429.7</ele>
        <time>2016-03-30T11:43:04Z</time>
      </trkpt>
      <trkpt lat="43.4577" lon="5.76111">
        <ele>429.1</ele>
        <time>2016-03-30T11:43:11Z</time>
      </trkpt>
      <trkpt lat="43.45767" lon="5.76099">
        <ele>428.6</ele>
        <time>2016-03-30T11:43:19Z</time>
      </trkpt>
      <trkpt lat="43.45765" lon="5.76087">
        <ele>428.1</ele>
        <time>2016-03-30T11:43:27Z</time>
      </trkpt>
      <trkpt lat="43.45765" lon="5.76073">
        <ele>427.6</ele>
        <time>2016-03-30T11:43:35Z</time>
      </trkpt>
      <trkpt lat="43.45765" lon="5.7606">
        <ele>427.2</ele>
        <time>2016-03-30T11:43:41Z</time>
      </trkpt>
      <trkpt lat="43.45765" lon="5.76046">
        <ele>426.7</ele>
        <time>2016-03-30T11:43:49Z</time>
      </trkpt>
      <trkpt lat="43.45764" lon="5.76032">
        <ele>426.3</ele>
        <time>2016-03-30T11:43:57Z</time>
      </trkpt>
      <trkpt lat="43.45761" lon="5.7602">
        <ele>426</ele>
        <time>2016-03-30T11:44:04Z</time>
      </trkpt>
      <trkpt lat="43.45756" lon="5.76009">
        <ele>425.8</ele>
        <time>2016-03-30T11:44:11Z</time>
      </trkpt>
      <trkpt lat="43.45748" lon="5.75999">
        <ele>425.4</ele>
        <time>2016-03-30T11:44:18Z</time>
      </trkpt>
      <trkpt lat="43.45743" lon="5.75989">
        <ele>424.9</ele>
        <time>2016-03-30T11:44:25Z</time>
      </trkpt>
      <trkpt lat="43.45737" lon="5.75979">
        <ele>424.3</ele>
        <time>2016-03-30T11:44:33Z</time>
      </trkpt>
      <trkpt lat="43.45732" lon="5.75968">
        <ele>423.7</ele>
        <time>2016-03-30T11:44:41Z</time>
      </trkpt>
      <trkpt lat="43.45728" lon="5.75956">
        <ele>423.2</ele>
        <time>2016-03-30T11:44:47Z</time>
      </trkpt>
      <trkpt lat="43.45726" lon="5.75943">
        <ele>422.7</ele>
        <time>2016-03-30T11:44:55Z</time>
      </trkpt>
      <trkpt lat="43.45729" lon="5.75931">
        <ele>422.4</ele>
        <time>2016-03-30T11:45:03Z</time>
      </trkpt>
      <trkpt lat="43.45733" lon="5.75919">
        <ele>422.4</ele>
        <time>2016-03-30T11:45:11Z</time>
      </trkpt>
      <trkpt lat="43.45738" lon="5.75908">
        <ele>422.3</ele>
        <time>2016-03-30T11:45:18Z</time>
      </trkpt>
      <trkpt lat="43.45742" lon="5.75897">
        <ele>422.3</ele>
        <time>2016-03-30T11:45:26Z</time>
      </trkpt>
      <trkpt lat="43.45747" lon="5.75886">
        <ele>422.5</ele>
        <time>2016-03-30T11:45:34Z</time>
      </trkpt>
      <trkpt lat="43.45749" lon="5.75874">
        <ele>422.9</ele>
        <time>2016-03-30T11:45:42Z</time>
      </trkpt>
      <trkpt lat="43.45756" lon="5.75865">
        <ele>424.5</ele>
        <time>2016-03-30T11:48:52Z</time>
      </trkpt>
      <trkpt lat="43.45765" lon="5.75859">
        <ele>424.1</ele>
        <time>2016-03-30T11:49:01Z</time>
      </trkpt>
      <trkpt lat="43.45773" lon="5.75854">
        <ele>423.4</ele>
        <time>2016-03-30T11:49:09Z</time>
      </trkpt>
      <trkpt lat="43.45782" lon="5.75849">
        <ele>422.9</ele>
        <time>2016-03-30T11:49:15Z</time>
      </trkpt>
      <trkpt lat="43.45788" lon="5.75839">
        <ele>422.1</ele>
        <time>2016-03-30T11:49:22Z</time>
      </trkpt>
      <trkpt lat="43.45792" lon="5.75827">
        <ele>420.7</ele>
        <time>2016-03-30T11:49:44Z</time>
      </trkpt>
      <trkpt lat="43.45796" lon="5.75815">
        <ele>420</ele>
        <time>2016-03-30T11:49:54Z</time>
      </trkpt>
      <trkpt lat="43.45804" lon="5.75811">
        <ele>418.9</ele>
        <time>2016-03-30T11:50:05Z</time>
      </trkpt>
      <trkpt lat="43.45814" lon="5.75814">
        <ele>418.5</ele>
        <time>2016-03-30T11:50:12Z</time>
      </trkpt>
      <trkpt lat="43.45824" lon="5.75813">
        <ele>418.3</ele>
        <time>2016-03-30T11:50:18Z</time>
      </trkpt>
      <trkpt lat="43.45833" lon="5.7581">
        <ele>418.5</ele>
        <time>2016-03-30T11:50:25Z</time>
      </trkpt>
      <trkpt lat="43.45841" lon="5.75802">
        <ele>418.6</ele>
        <time>2016-03-30T11:50:34Z</time>
      </trkpt>
      <trkpt lat="43.45849" lon="5.75793">
        <ele>418.3</ele>
        <time>2016-03-30T11:50:42Z</time>
      </trkpt>
      <trkpt lat="43.45857" lon="5.75785">
        <ele>418</ele>
        <time>2016-03-30T11:50:48Z</time>
      </trkpt>
      <trkpt lat="43.45865" lon="5.75778">
        <ele>417.6</ele>
        <time>2016-03-30T11:50:55Z</time>
      </trkpt>
      <trkpt lat="43.45873" lon="5.75771">
        <ele>416.9</ele>
        <time>2016-03-30T11:51:02Z</time>
      </trkpt>
      <trkpt lat="43.45882" lon="5.75767">
        <ele>416.1</ele>
        <time>2016-03-30T11:51:09Z</time>
      </trkpt>
      <trkpt lat="43.45891" lon="5.75762">
        <ele>414.9</ele>
        <time>2016-03-30T11:51:18Z</time>
      </trkpt>
      <trkpt lat="43.45899" lon="5.75754">
        <ele>413.6</ele>
        <time>2016-03-30T11:51:28Z</time>
      </trkpt>
      <trkpt lat="43.45908" lon="5.75747">
        <ele>412.4</ele>
        <time>2016-03-30T11:51:37Z</time>
      </trkpt>
      <trkpt lat="43.45916" lon="5.75739">
        <ele>411.3</ele>
        <time>2016-03-30T11:51:46Z</time>
      </trkpt>
      <trkpt lat="43.45924" lon="5.75733">
        <ele>410.3</ele>
        <time>2016-03-30T11:51:55Z</time>
      </trkpt>
      <trkpt lat="43.45932" lon="5.75727">
        <ele>409.2</ele>
        <time>2016-03-30T11:52:03Z</time>
      </trkpt>
      <trkpt lat="43.45941" lon="5.7572">
        <ele>406.7</ele>
        <time>2016-03-30T11:52:33Z</time>
      </trkpt>
      <trkpt lat="43.45948" lon="5.7571">
        <ele>406</ele>
        <time>2016-03-30T11:52:47Z</time>
      </trkpt>
      <trkpt lat="43.45956" lon="5.75703">
        <ele>405.3</ele>
        <time>2016-03-30T11:52:54Z</time>
      </trkpt>
      <trkpt lat="43.45964" lon="5.75694">
        <ele>404.4</ele>
        <time>2016-03-30T11:53:01Z</time>
      </trkpt>
      <trkpt lat="43.45971" lon="5.75687">
        <ele>403.3</ele>
        <time>2016-03-30T11:53:09Z</time>
      </trkpt>
      <trkpt lat="43.45979" lon="5.75678">
        <ele>402.2</ele>
        <time>2016-03-30T11:53:18Z</time>
      </trkpt>
      <trkpt lat="43.45987" lon="5.75672">
        <ele>400.8</ele>
        <time>2016-03-30T11:53:28Z</time>
      </trkpt>
      <trkpt lat="43.45996" lon="5.75668">
        <ele>399.6</ele>
        <time>2016-03-30T11:53:37Z</time>
      </trkpt>
      <trkpt lat="43.45995" lon="5.7567">
        <ele>397.8</ele>
        <time>2016-03-30T11:56:30Z</time>
      </trkpt>
      <trkpt lat="43.46005" lon="5.75666">
        <ele>396.4</ele>
        <time>2016-03-30T11:58:09Z</time>
      </trkpt>
      <trkpt lat="43.46014" lon="5.75667">
        <ele>396.3</ele>
        <time>2016-03-30T11:58:15Z</time>
      </trkpt>
      <trkpt lat="43.46023" lon="5.75664">
        <ele>395.7</ele>
        <time>2016-03-30T11:58:24Z</time>
      </trkpt>
      <trkpt lat="43.46032" lon="5.75664">
        <ele>395.4</ele>
        <time>2016-03-30T11:58:33Z</time>
      </trkpt>
      <trkpt lat="43.46041" lon="5.75664">
        <ele>395.1</ele>
        <time>2016-03-30T11:58:41Z</time>
      </trkpt>
      <trkpt lat="43.46051" lon="5.75666">
        <ele>394.3</ele>
        <time>2016-03-30T11:58:51Z</time>
      </trkpt>
      <trkpt lat="43.46059" lon="5.75659">
        <ele>393.9</ele>
        <time>2016-03-30T11:59:05Z</time>
      </trkpt>
      <trkpt lat="43.46068" lon="5.75656">
        <ele>393.7</ele>
        <time>2016-03-30T11:59:13Z</time>
      </trkpt>
      <trkpt lat="43.46078" lon="5.75661">
        <ele>392.1</ele>
        <time>2016-03-30T12:00:42Z</time>
      </trkpt>
      <trkpt lat="43.46087" lon="5.75666">
        <ele>391.3</ele>
        <time>2016-03-30T12:00:58Z</time>
      </trkpt>
      <trkpt lat="43.46096" lon="5.75667">
        <ele>390.5</ele>
        <time>2016-03-30T12:01:09Z</time>
      </trkpt>
      <trkpt lat="43.46105" lon="5.75672">
        <ele>390.2</ele>
        <time>2016-03-30T12:01:16Z</time>
      </trkpt>
      <trkpt lat="43.46114" lon="5.75673">
        <ele>389.7</ele>
        <time>2016-03-30T12:01:24Z</time>
      </trkpt>
      <trkpt lat="43.46123" lon="5.75667">
        <ele>388.9</ele>
        <time>2016-03-30T12:02:36Z</time>
      </trkpt>
      <trkpt lat="43.46133" lon="5.75668">
        <ele>388.2</ele>
        <time>2016-03-30T12:02:45Z</time>
      </trkpt>
      <trkpt lat="43.46142" lon="5.75672">
        <ele>387.5</ele>
        <time>2016-03-30T12:02:53Z</time>
      </trkpt>
      <trkpt lat="43.46149" lon="5.75681">
        <ele>386.7</ele>
        <time>2016-03-30T12:03:01Z</time>
      </trkpt>
      <trkpt lat="43.46158" lon="5.75685">
        <ele>386</ele>
        <time>2016-03-30T12:03:08Z</time>
      </trkpt>
      <trkpt lat="43.46167" lon="5.75689">
        <ele>385.1</ele>
        <time>2016-03-30T12:03:16Z</time>
      </trkpt>
      <trkpt lat="43.46177" lon="5.75689">
        <ele>384.4</ele>
        <time>2016-03-30T12:03:23Z</time>
      </trkpt>
      <trkpt lat="43.46187" lon="5.75684">
        <ele>383.7</ele>
        <time>2016-03-30T12:03:30Z</time>
      </trkpt>
      <trkpt lat="43.46195" lon="5.75678">
        <ele>383</ele>
        <time>2016-03-30T12:03:38Z</time>
      </trkpt>
      <trkpt lat="43.46204" lon="5.75674">
        <ele>381.8</ele>
        <time>2016-03-30T12:03:47Z</time>
      </trkpt>
      <trkpt lat="43.46214" lon="5.75674">
        <ele>378.7</ele>
        <time>2016-03-30T12:04:32Z</time>
      </trkpt>
      <trkpt lat="43.46223" lon="5.75667">
        <ele>378.4</ele>
        <time>2016-03-30T12:04:41Z</time>
      </trkpt>
      <trkpt lat="43.46231" lon="5.75665">
        <ele>378.2</ele>
        <time>2016-03-30T12:04:49Z</time>
      </trkpt>
      <trkpt lat="43.4624" lon="5.75663">
        <ele>377.7</ele>
        <time>2016-03-30T12:04:59Z</time>
      </trkpt>
      <trkpt lat="43.4625" lon="5.75665">
        <ele>376.8</ele>
        <time>2016-03-30T12:05:10Z</time>
      </trkpt>
      <trkpt lat="43.46259" lon="5.75665">
        <ele>375</ele>
        <time>2016-03-30T12:06:45Z</time>
      </trkpt>
      <trkpt lat="43.4626" lon="5.75652">
        <ele>374.8</ele>
        <time>2016-03-30T12:06:56Z</time>
      </trkpt>
      <trkpt lat="43.4626" lon="5.75639">
        <ele>374.5</ele>
        <time>2016-03-30T12:07:08Z</time>
      </trkpt>
      <trkpt lat="43.46258" lon="5.75627">
        <ele>374</ele>
        <time>2016-03-30T12:07:21Z</time>
      </trkpt>
      <trkpt lat="43.46256" lon="5.75614">
        <ele>373.8</ele>
        <time>2016-03-30T12:07:33Z</time>
      </trkpt>
      <trkpt lat="43.46255" lon="5.75602">
        <ele>373.7</ele>
        <time>2016-03-30T12:07:44Z</time>
      </trkpt>
      <trkpt lat="43.46254" lon="5.75589">
        <ele>373.7</ele>
        <time>2016-03-30T12:07:54Z</time>
      </trkpt>
      <trkpt lat="43.46252" lon="5.75577">
        <ele>373.7</ele>
        <time>2016-03-30T12:08:06Z</time>
      </trkpt>
      <trkpt lat="43.46254" lon="5.75564">
        <ele>373.8</ele>
        <time>2016-03-30T12:08:18Z</time>
      </trkpt>
      <trkpt lat="43.46255" lon="5.75551">
        <ele>374</ele>
        <time>2016-03-30T12:08:31Z</time>
      </trkpt>
      <trkpt lat="43.46255" lon="5.75537">
        <ele>374.4</ele>
        <time>2016-03-30T12:08:44Z</time>
      </trkpt>
      <trkpt lat="43.46254" lon="5.75524">
        <ele>374.7</ele>
        <time>2016-03-30T12:08:58Z</time>
      </trkpt>
      <trkpt lat="43.46254" lon="5.75512">
        <ele>375.3</ele>
        <time>2016-03-30T12:09:10Z</time>
      </trkpt>
      <trkpt lat="43.46255" lon="5.75498">
        <ele>375.2</ele>
        <time>2016-03-30T12:09:21Z</time>
      </trkpt>
      <trkpt lat="43.46263" lon="5.75492">
        <ele>373.7</ele>
        <time>2016-03-30T12:09:38Z</time>
      </trkpt>
      <trkpt lat="43.46273" lon="5.75492">
        <ele>373.2</ele>
        <time>2016-03-30T12:09:49Z</time>
      </trkpt>
      <trkpt lat="43.46282" lon="5.75491">
        <ele>372.5</ele>
        <time>2016-03-30T12:10:02Z</time>
      </trkpt>
      <trkpt lat="43.46291" lon="5.75494">
        <ele>371.6</ele>
        <time>2016-03-30T12:10:12Z</time>
      </trkpt>
      <trkpt lat="43.463" lon="5.75493">
        <ele>370.2</ele>
        <time>2016-03-30T12:10:24Z</time>
      </trkpt>
      <trkpt lat="43.46309" lon="5.75491">
        <ele>369</ele>
        <time>2016-03-30T12:10:35Z</time>
      </trkpt>
      <trkpt lat="43.46319" lon="5.75491">
        <ele>367.8</ele>
        <time>2016-03-30T12:10:50Z</time>
      </trkpt>
      <trkpt lat="43.46328" lon="5.75491">
        <ele>366.8</ele>
        <time>2016-03-30T12:11:04Z</time>
      </trkpt>
      <trkpt lat="43.46338" lon="5.75487">
        <ele>365.7</ele>
        <time>2016-03-30T12:11:21Z</time>
      </trkpt>
      <trkpt lat="43.46345" lon="5.75478">
        <ele>364.8</ele>
        <time>2016-03-30T12:11:33Z</time>
      </trkpt>
      <trkpt lat="43.46353" lon="5.75471">
        <ele>364.2</ele>
        <time>2016-03-30T12:11:43Z</time>
      </trkpt>
      <trkpt lat="43.46356" lon="5.75459">
        <ele>363.7</ele>
        <time>2016-03-30T12:11:55Z</time>
      </trkpt>
      <trkpt lat="43.46362" lon="5.75449">
        <ele>362.4</ele>
        <time>2016-03-30T12:12:08Z</time>
      </trkpt>
      <trkpt lat="43.46366" lon="5.75438">
        <ele>360.9</ele>
        <time>2016-03-30T12:12:18Z</time>
      </trkpt>
      <trkpt lat="43.46371" lon="5.75427">
        <ele>359.8</ele>
        <time>2016-03-30T12:12:29Z</time>
      </trkpt>
      <trkpt lat="43.46377" lon="5.75417">
        <ele>359.1</ele>
        <time>2016-03-30T12:12:42Z</time>
      </trkpt>
      <trkpt lat="43.4638" lon="5.75405">
        <ele>358.3</ele>
        <time>2016-03-30T12:12:59Z</time>
      </trkpt>
      <trkpt lat="43.46387" lon="5.75397">
        <ele>357.7</ele>
        <time>2016-03-30T12:13:12Z</time>
      </trkpt>
      <trkpt lat="43.46396" lon="5.75395">
        <ele>356.7</ele>
        <time>2016-03-30T12:14:20Z</time>
      </trkpt>
      <trkpt lat="43.46405" lon="5.75395">
        <ele>356.6</ele>
        <time>2016-03-30T12:14:31Z</time>
      </trkpt>
      <trkpt lat="43.46411" lon="5.75405">
        <ele>356.5</ele>
        <time>2016-03-30T12:14:47Z</time>
      </trkpt>
      <trkpt lat="43.46417" lon="5.75415">
        <ele>356.2</ele>
        <time>2016-03-30T12:15:00Z</time>
      </trkpt>
      <trkpt lat="43.46422" lon="5.75426">
        <ele>356.1</ele>
        <time>2016-03-30T12:15:12Z</time>
      </trkpt>
      <trkpt lat="43.4643" lon="5.75432">
        <ele>356</ele>
        <time>2016-03-30T12:15:36Z</time>
      </trkpt>
      <trkpt lat="43.46431" lon="5.75445">
        <ele>356</ele>
        <time>2016-03-30T12:16:00Z</time>
      </trkpt>
      <trkpt lat="43.46433" lon="5.75458">
        <ele>356</ele>
        <time>2016-03-30T12:16:12Z</time>
      </trkpt>
      <trkpt lat="43.46436" lon="5.75469">
        <ele>356.4</ele>
        <time>2016-03-30T12:16:24Z</time>
      </trkpt>
      <trkpt lat="43.46441" lon="5.75481">
        <ele>357.2</ele>
        <time>2016-03-30T12:16:41Z</time>
      </trkpt>
      <trkpt lat="43.46447" lon="5.75491">
        <ele>358</ele>
        <time>2016-03-30T12:16:57Z</time>
      </trkpt>
      <trkpt lat="43.46454" lon="5.755">
        <ele>358.5</ele>
        <time>2016-03-30T12:17:07Z</time>
      </trkpt>
      <trkpt lat="43.46464" lon="5.75504">
        <ele>358.9</ele>
        <time>2016-03-30T12:17:16Z</time>
      </trkpt>
      <trkpt lat="43.46473" lon="5.75499">
        <ele>359.3</ele>
        <time>2016-03-30T12:17:27Z</time>
      </trkpt>
      <trkpt lat="43.46481" lon="5.7549">
        <ele>359.5</ele>
        <time>2016-03-30T12:17:37Z</time>
      </trkpt>
      <trkpt lat="43.46488" lon="5.75482">
        <ele>359.5</ele>
        <time>2016-03-30T12:17:45Z</time>
      </trkpt>
      <trkpt lat="43.46497" lon="5.75478">
        <ele>359.4</ele>
        <time>2016-03-30T12:17:53Z</time>
      </trkpt>
      <trkpt lat="43.46506" lon="5.75477">
        <ele>359.4</ele>
        <time>2016-03-30T12:18:01Z</time>
      </trkpt>
      <trkpt lat="43.46516" lon="5.75477">
        <ele>359</ele>
        <time>2016-03-30T12:18:09Z</time>
      </trkpt>
      <trkpt lat="43.46526" lon="5.75477">
        <ele>358.3</ele>
        <time>2016-03-30T12:18:17Z</time>
      </trkpt>
      <trkpt lat="43.46534" lon="5.75471">
        <ele>357.7</ele>
        <time>2016-03-30T12:18:24Z</time>
      </trkpt>
      <trkpt lat="43.46543" lon="5.75465">
        <ele>356.1</ele>
        <time>2016-03-30T12:21:31Z</time>
      </trkpt>
      <trkpt lat="43.4655" lon="5.75454">
        <ele>355.8</ele>
        <time>2016-03-30T12:21:43Z</time>
      </trkpt>
      <trkpt lat="43.46559" lon="5.75446">
        <ele>355.5</ele>
        <time>2016-03-30T12:21:51Z</time>
      </trkpt>
      <trkpt lat="43.46567" lon="5.75439">
        <ele>355</ele>
        <time>2016-03-30T12:22:08Z</time>
      </trkpt>
      <trkpt lat="43.46573" lon="5.75428">
        <ele>354.8</ele>
        <time>2016-03-30T12:22:17Z</time>
      </trkpt>
      <trkpt lat="43.4658" lon="5.75419">
        <ele>354.5</ele>
        <time>2016-03-30T12:22:25Z</time>
      </trkpt>
      <trkpt lat="43.46587" lon="5.75409">
        <ele>354.2</ele>
        <time>2016-03-30T12:22:34Z</time>
      </trkpt>
      <trkpt lat="43.46594" lon="5.75402">
        <ele>353.7</ele>
        <time>2016-03-30T12:22:42Z</time>
      </trkpt>
      <trkpt lat="43.46602" lon="5.75394">
        <ele>353.4</ele>
        <time>2016-03-30T12:22:50Z</time>
      </trkpt>
      <trkpt lat="43.4661" lon="5.75386">
        <ele>353</ele>
        <time>2016-03-30T12:22:58Z</time>
      </trkpt>
      <trkpt lat="43.46617" lon="5.75377">
        <ele>352.8</ele>
        <time>2016-03-30T12:23:06Z</time>
      </trkpt>
      <trkpt lat="43.46625" lon="5.7537">
        <ele>352.4</ele>
        <time>2016-03-30T12:23:15Z</time>
      </trkpt>
      <trkpt lat="43.46633" lon="5.75362">
        <ele>352</ele>
        <time>2016-03-30T12:23:23Z</time>
      </trkpt>
      <trkpt lat="43.4664" lon="5.75354">
        <ele>351.7</ele>
        <time>2016-03-30T12:23:32Z</time>
      </trkpt>
      <trkpt lat="43.46647" lon="5.75345">
        <ele>351.5</ele>
        <time>2016-03-30T12:23:41Z</time>
      </trkpt>
      <trkpt lat="43.46654" lon="5.75335">
        <ele>351.5</ele>
        <time>2016-03-30T12:23:49Z</time>
      </trkpt>
      <trkpt lat="43.46661" lon="5.75326">
        <ele>351.2</ele>
        <time>2016-03-30T12:23:57Z</time>
      </trkpt>
      <trkpt lat="43.46668" lon="5.75317">
        <ele>351</ele>
        <time>2016-03-30T12:24:05Z</time>
      </trkpt>
      <trkpt lat="43.46673" lon="5.75306">
        <ele>351</ele>
        <time>2016-03-30T12:24:14Z</time>
      </trkpt>
      <trkpt lat="43.46675" lon="5.75294">
        <ele>350.6</ele>
        <time>2016-03-30T12:24:23Z</time>
      </trkpt>
      <trkpt lat="43.46677" lon="5.7528">
        <ele>350.1</ele>
        <time>2016-03-30T12:24:33Z</time>
      </trkpt>
      <trkpt lat="43.46679" lon="5.75267">
        <ele>348.4</ele>
        <time>2016-03-30T12:24:54Z</time>
      </trkpt>
      <trkpt lat="43.46679" lon="5.75254">
        <ele>347.7</ele>
        <time>2016-03-30T12:25:04Z</time>
      </trkpt>
      <trkpt lat="43.46682" lon="5.75242">
        <ele>346.9</ele>
        <time>2016-03-30T12:25:13Z</time>
      </trkpt>
      <trkpt lat="43.46685" lon="5.75229">
        <ele>345.8</ele>
        <time>2016-03-30T12:25:23Z</time>
      </trkpt>
      <trkpt lat="43.4669" lon="5.75218">
        <ele>343.9</ele>
        <time>2016-03-30T12:25:42Z</time>
      </trkpt>
      <trkpt lat="43.46693" lon="5.75206">
        <ele>343.1</ele>
        <time>2016-03-30T12:25:51Z</time>
      </trkpt>
      <trkpt lat="43.46698" lon="5.75194">
        <ele>342.2</ele>
        <time>2016-03-30T12:26:00Z</time>
      </trkpt>
      <trkpt lat="43.46702" lon="5.75182">
        <ele>341.2</ele>
        <time>2016-03-30T12:26:08Z</time>
      </trkpt>
      <trkpt lat="43.46705" lon="5.75169">
        <ele>340</ele>
        <time>2016-03-30T12:26:17Z</time>
      </trkpt>
      <trkpt lat="43.46707" lon="5.75156">
        <ele>339.1</ele>
        <time>2016-03-30T12:26:25Z</time>
      </trkpt>
      <trkpt lat="43.46711" lon="5.75143">
        <ele>338.1</ele>
        <time>2016-03-30T12:26:32Z</time>
      </trkpt>
      <trkpt lat="43.46711" lon="5.7513">
        <ele>336.8</ele>
        <time>2016-03-30T12:26:40Z</time>
      </trkpt>
      <trkpt lat="43.46712" lon="5.75117">
        <ele>335.6</ele>
        <time>2016-03-30T12:26:48Z</time>
      </trkpt>
      <trkpt lat="43.46713" lon="5.75104">
        <ele>334.2</ele>
        <time>2016-03-30T12:26:57Z</time>
      </trkpt>
      <trkpt lat="43.46714" lon="5.75091">
        <ele>333</ele>
        <time>2016-03-30T12:27:05Z</time>
      </trkpt>
      <trkpt lat="43.46713" lon="5.75078">
        <ele>331.8</ele>
        <time>2016-03-30T12:27:13Z</time>
      </trkpt>
      <trkpt lat="43.4671" lon="5.75066">
        <ele>330.6</ele>
        <time>2016-03-30T12:27:21Z</time>
      </trkpt>
      <trkpt lat="43.46708" lon="5.75053">
        <ele>329.3</ele>
        <time>2016-03-30T12:27:30Z</time>
      </trkpt>
      <trkpt lat="43.46705" lon="5.75041">
        <ele>328.1</ele>
        <time>2016-03-30T12:27:38Z</time>
      </trkpt>
      <trkpt lat="43.46702" lon="5.75028">
        <ele>326.8</ele>
        <time>2016-03-30T12:27:47Z</time>
      </trkpt>
      <trkpt lat="43.46701" lon="5.75015">
        <ele>325.8</ele>
        <time>2016-03-30T12:27:54Z</time>
      </trkpt>
      <trkpt lat="43.46698" lon="5.75002">
        <ele>324.5</ele>
        <time>2016-03-30T12:28:02Z</time>
      </trkpt>
      <trkpt lat="43.46696" lon="5.7499">
        <ele>323.2</ele>
        <time>2016-03-30T12:28:10Z</time>
      </trkpt>
      <trkpt lat="43.46695" lon="5.74977">
        <ele>322</ele>
        <time>2016-03-30T12:28:18Z</time>
      </trkpt>
      <trkpt lat="43.46693" lon="5.74963">
        <ele>320.5</ele>
        <time>2016-03-30T12:28:27Z</time>
      </trkpt>
      <trkpt lat="43.46693" lon="5.7495">
        <ele>319.1</ele>
        <time>2016-03-30T12:28:36Z</time>
      </trkpt>
      <trkpt lat="43.46689" lon="5.74938">
        <ele>317.7</ele>
        <time>2016-03-30T12:28:47Z</time>
      </trkpt>
      <trkpt lat="43.46687" lon="5.74926">
        <ele>316.7</ele>
        <time>2016-03-30T12:28:56Z</time>
      </trkpt>
      <trkpt lat="43.46687" lon="5.74912">
        <ele>315.9</ele>
        <time>2016-03-30T12:29:05Z</time>
      </trkpt>
      <trkpt lat="43.46688" lon="5.749">
        <ele>315.2</ele>
        <time>2016-03-30T12:29:12Z</time>
      </trkpt>
      <trkpt lat="43.46691" lon="5.74888">
        <ele>314.5</ele>
        <time>2016-03-30T12:29:20Z</time>
      </trkpt>
      <trkpt lat="43.46694" lon="5.74875">
        <ele>313.9</ele>
        <time>2016-03-30T12:29:28Z</time>
      </trkpt>
      <trkpt lat="43.46697" lon="5.74863">
        <ele>313.5</ele>
        <time>2016-03-30T12:29:35Z</time>
      </trkpt>
      <trkpt lat="43.467" lon="5.74851">
        <ele>313.1</ele>
        <time>2016-03-30T12:29:42Z</time>
      </trkpt>
      <trkpt lat="43.46701" lon="5.74838">
        <ele>312.6</ele>
        <time>2016-03-30T12:29:50Z</time>
      </trkpt>
      <trkpt lat="43.467" lon="5.74826">
        <ele>312</ele>
        <time>2016-03-30T12:29:58Z</time>
      </trkpt>
      <trkpt lat="43.46699" lon="5.74811">
        <ele>311.6</ele>
        <time>2016-03-30T12:30:06Z</time>
      </trkpt>
      <trkpt lat="43.46696" lon="5.74798">
        <ele>311.1</ele>
        <time>2016-03-30T12:30:14Z</time>
      </trkpt>
      <trkpt lat="43.46689" lon="5.74788">
        <ele>310.8</ele>
        <time>2016-03-30T12:30:22Z</time>
      </trkpt>
      <trkpt lat="43.46683" lon="5.74779">
        <ele>310.5</ele>
        <time>2016-03-30T12:30:30Z</time>
      </trkpt>
      <trkpt lat="43.46678" lon="5.74767">
        <ele>310</ele>
        <time>2016-03-30T12:30:39Z</time>
      </trkpt>
      <trkpt lat="43.46674" lon="5.74756">
        <ele>309.4</ele>
        <time>2016-03-30T12:30:54Z</time>
      </trkpt>
      <trkpt lat="43.46668" lon="5.74746">
        <ele>308.9</ele>
        <time>2016-03-30T12:31:17Z</time>
      </trkpt>
      <trkpt lat="43.46664" lon="5.74734">
        <ele>308.9</ele>
        <time>2016-03-30T12:31:25Z</time>
      </trkpt>
      <trkpt lat="43.46661" lon="5.74722">
        <ele>309</ele>
        <time>2016-03-30T12:31:36Z</time>
      </trkpt>
      <trkpt lat="43.46659" lon="5.74708">
        <ele>309.5</ele>
        <time>2016-03-30T12:32:08Z</time>
      </trkpt>
      <trkpt lat="43.46662" lon="5.74695">
        <ele>309.5</ele>
        <time>2016-03-30T12:32:15Z</time>
      </trkpt>
      <trkpt lat="43.46665" lon="5.74683">
        <ele>309.4</ele>
        <time>2016-03-30T12:32:24Z</time>
      </trkpt>
      <trkpt lat="43.46666" lon="5.7467">
        <ele>309.3</ele>
        <time>2016-03-30T12:32:32Z</time>
      </trkpt>
      <trkpt lat="43.46671" lon="5.7466">
        <ele>309</ele>
        <time>2016-03-30T12:32:41Z</time>
      </trkpt>
      <trkpt lat="43.46679" lon="5.74651">
        <ele>308.5</ele>
        <time>2016-03-30T12:32:50Z</time>
      </trkpt>
      <trkpt lat="43.46682" lon="5.74639">
        <ele>307.9</ele>
        <time>2016-03-30T12:32:58Z</time>
      </trkpt>
      <trkpt lat="43.46682" lon="5.74625">
        <ele>307.3</ele>
        <time>2016-03-30T12:33:06Z</time>
      </trkpt>
      <trkpt lat="43.46684" lon="5.74612">
        <ele>306.6</ele>
        <time>2016-03-30T12:33:15Z</time>
      </trkpt>
      <trkpt lat="43.46689" lon="5.74602">
        <ele>306.1</ele>
        <time>2016-03-30T12:33:23Z</time>
      </trkpt>
      <trkpt lat="43.46693" lon="5.74589">
        <ele>305.3</ele>
        <time>2016-03-30T12:33:33Z</time>
      </trkpt>
      <trkpt lat="43.46702" lon="5.74581">
        <ele>304.7</ele>
        <time>2016-03-30T12:33:41Z</time>
      </trkpt>
      <trkpt lat="43.46705" lon="5.74569">
        <ele>304.3</ele>
        <time>2016-03-30T12:33:48Z</time>
      </trkpt>
      <trkpt lat="43.46706" lon="5.74557">
        <ele>304</ele>
        <time>2016-03-30T12:33:55Z</time>
      </trkpt>
      <trkpt lat="43.4671" lon="5.74546">
        <ele>303.9</ele>
        <time>2016-03-30T12:34:02Z</time>
      </trkpt>
      <trkpt lat="43.46716" lon="5.74536">
        <ele>303.6</ele>
        <time>2016-03-30T12:34:10Z</time>
      </trkpt>
      <trkpt lat="43.46725" lon="5.74528">
        <ele>303.3</ele>
        <time>2016-03-30T12:34:17Z</time>
      </trkpt>
      <trkpt lat="43.46732" lon="5.74522">
        <ele>301.9</ele>
        <time>2016-03-30T12:37:18Z</time>
      </trkpt>
    </trkseg>
  </trk>
</gpx>